﻿<?xml version="1.0" encoding="UTF-8" standalone="no" ?>
<gpx xmlns="http://www.topografix.com/GPX/1/1" creator="CompeGPS" version="1.1" xmlns:xsi="http://www.w3.org/2001/XMLSchema-instance" xsi:schemaLocation="http://www.topografix.com/GPX/1/1 http://www.topografix.com/GPX/1/1/gpx.xsd http://www.garmin.com/xmlschemas/GpxExtensions/v3 http://www.garmin.com/xmlschemas/GpxExtensionsv3.xsd http://www.garmin.com/xmlschemas/TrackPointExtension/v1 http://www.garmin.com/xmlschemas/TrackPointExtensionv1.xsd" xmlns:gpxtpx="http://www.garmin.com/xmlschemas/TrackPointExtension/v1">
  <metadata>
    <link href="http://www.compegps.com">
      <text>CompeGPS TEAM, SL</text>
    </link>
    <time>2019-12-13T18:56:17Z</time>
    <bounds maxlat="43.774826" maxlon="3.573251" minlat="43.743464" minlon="3.553835"/>
  </metadata>
  <trk>
    <name>roc_de_la_vigne</name>
    <userMyTwoNav></userMyTwoNav>
    <serialNumber></serialNumber>
    <trkseg>
      <trkpt lat="43.743484" lon="3.566072">
        <ele>70.8</ele>
        <time>2018-05-10T07:32:21Z</time>
      </trkpt>
      <trkpt lat="43.743506" lon="3.566020">
        <ele>74.2</ele>
        <time>2018-05-10T07:32:57Z</time>
      </trkpt>
      <trkpt lat="43.743563" lon="3.565883">
        <ele>75.0</ele>
        <time>2018-05-10T07:33:06Z</time>
      </trkpt>
      <trkpt lat="43.743560" lon="3.565743">
        <ele>75.5</ele>
        <time>2018-05-10T07:33:14Z</time>
      </trkpt>
      <trkpt lat="43.743549" lon="3.565609">
        <ele>75.8</ele>
        <time>2018-05-10T07:33:22Z</time>
      </trkpt>
      <trkpt lat="43.743516" lon="3.565474">
        <ele>76.1</ele>
        <time>2018-05-10T07:33:30Z</time>
      </trkpt>
      <trkpt lat="43.743512" lon="3.565352">
        <ele>76.2</ele>
        <time>2018-05-10T07:33:37Z</time>
      </trkpt>
      <trkpt lat="43.743555" lon="3.565238">
        <ele>76.1</ele>
        <time>2018-05-10T07:33:45Z</time>
      </trkpt>
      <trkpt lat="43.743620" lon="3.565149">
        <ele>76.3</ele>
        <time>2018-05-10T07:33:52Z</time>
      </trkpt>
      <trkpt lat="43.743687" lon="3.565059">
        <ele>76.4</ele>
        <time>2018-05-10T07:34:00Z</time>
      </trkpt>
      <trkpt lat="43.743766" lon="3.565006">
        <ele>76.6</ele>
        <time>2018-05-10T07:34:06Z</time>
      </trkpt>
      <trkpt lat="43.743845" lon="3.564937">
        <ele>76.8</ele>
        <time>2018-05-10T07:34:13Z</time>
      </trkpt>
      <trkpt lat="43.743928" lon="3.564842">
        <ele>76.6</ele>
        <time>2018-05-10T07:34:25Z</time>
      </trkpt>
      <trkpt lat="43.744013" lon="3.564765">
        <ele>76.2</ele>
        <time>2018-05-10T07:34:35Z</time>
      </trkpt>
      <trkpt lat="43.744076" lon="3.564667">
        <ele>76.2</ele>
        <time>2018-05-10T07:35:06Z</time>
      </trkpt>
      <trkpt lat="43.744147" lon="3.564546">
        <ele>76.1</ele>
        <time>2018-05-10T07:35:14Z</time>
      </trkpt>
      <trkpt lat="43.744198" lon="3.564417">
        <ele>75.8</ele>
        <time>2018-05-10T07:35:22Z</time>
      </trkpt>
      <trkpt lat="43.744246" lon="3.564297">
        <ele>75.5</ele>
        <time>2018-05-10T07:35:30Z</time>
      </trkpt>
      <trkpt lat="43.744288" lon="3.564173">
        <ele>75.5</ele>
        <time>2018-05-10T07:35:38Z</time>
      </trkpt>
      <trkpt lat="43.744303" lon="3.564038">
        <ele>75.1</ele>
        <time>2018-05-10T07:35:46Z</time>
      </trkpt>
      <trkpt lat="43.744308" lon="3.563863">
        <ele>74.6</ele>
        <time>2018-05-10T07:35:55Z</time>
      </trkpt>
      <trkpt lat="43.744328" lon="3.563722">
        <ele>74.0</ele>
        <time>2018-05-10T07:36:05Z</time>
      </trkpt>
      <trkpt lat="43.744326" lon="3.563583">
        <ele>73.9</ele>
        <time>2018-05-10T07:36:14Z</time>
      </trkpt>
      <trkpt lat="43.744299" lon="3.563439">
        <ele>73.8</ele>
        <time>2018-05-10T07:36:22Z</time>
      </trkpt>
      <trkpt lat="43.744314" lon="3.563353">
        <ele>74.2</ele>
        <time>2018-05-10T07:37:42Z</time>
      </trkpt>
      <trkpt lat="43.744357" lon="3.563236">
        <ele>73.5</ele>
        <time>2018-05-10T07:37:50Z</time>
      </trkpt>
      <trkpt lat="43.744455" lon="3.563227">
        <ele>72.9</ele>
        <time>2018-05-10T07:37:58Z</time>
      </trkpt>
      <trkpt lat="43.744538" lon="3.563223">
        <ele>72.5</ele>
        <time>2018-05-10T07:38:04Z</time>
      </trkpt>
      <trkpt lat="43.744631" lon="3.563196">
        <ele>72.4</ele>
        <time>2018-05-10T07:38:10Z</time>
      </trkpt>
      <trkpt lat="43.744740" lon="3.563151">
        <ele>72.7</ele>
        <time>2018-05-10T07:38:17Z</time>
      </trkpt>
      <trkpt lat="43.744847" lon="3.563150">
        <ele>73.1</ele>
        <time>2018-05-10T07:38:23Z</time>
      </trkpt>
      <trkpt lat="43.744959" lon="3.563179">
        <ele>73.9</ele>
        <time>2018-05-10T07:38:30Z</time>
      </trkpt>
      <trkpt lat="43.745059" lon="3.563167">
        <ele>74.4</ele>
        <time>2018-05-10T07:38:36Z</time>
      </trkpt>
      <trkpt lat="43.745146" lon="3.563150">
        <ele>75.3</ele>
        <time>2018-05-10T07:38:42Z</time>
      </trkpt>
      <trkpt lat="43.745261" lon="3.563146">
        <ele>75.9</ele>
        <time>2018-05-10T07:38:49Z</time>
      </trkpt>
      <trkpt lat="43.745367" lon="3.563155">
        <ele>76.3</ele>
        <time>2018-05-10T07:38:55Z</time>
      </trkpt>
      <trkpt lat="43.745456" lon="3.563129">
        <ele>76.8</ele>
        <time>2018-05-10T07:39:01Z</time>
      </trkpt>
      <trkpt lat="43.745551" lon="3.563117">
        <ele>77.4</ele>
        <time>2018-05-10T07:39:06Z</time>
      </trkpt>
      <trkpt lat="43.745663" lon="3.563090">
        <ele>77.8</ele>
        <time>2018-05-10T07:39:12Z</time>
      </trkpt>
      <trkpt lat="43.745761" lon="3.563043">
        <ele>77.8</ele>
        <time>2018-05-10T07:39:18Z</time>
      </trkpt>
      <trkpt lat="43.745885" lon="3.563073">
        <ele>77.7</ele>
        <time>2018-05-10T07:39:25Z</time>
      </trkpt>
      <trkpt lat="43.745990" lon="3.563091">
        <ele>78.1</ele>
        <time>2018-05-10T07:39:31Z</time>
      </trkpt>
      <trkpt lat="43.746069" lon="3.563178">
        <ele>78.2</ele>
        <time>2018-05-10T07:39:37Z</time>
      </trkpt>
      <trkpt lat="43.746150" lon="3.563247">
        <ele>78.5</ele>
        <time>2018-05-10T07:39:43Z</time>
      </trkpt>
      <trkpt lat="43.746229" lon="3.563314">
        <ele>78.8</ele>
        <time>2018-05-10T07:39:49Z</time>
      </trkpt>
      <trkpt lat="43.746312" lon="3.563317">
        <ele>79.4</ele>
        <time>2018-05-10T07:39:55Z</time>
      </trkpt>
      <trkpt lat="43.746409" lon="3.563350">
        <ele>79.7</ele>
        <time>2018-05-10T07:40:01Z</time>
      </trkpt>
      <trkpt lat="43.746517" lon="3.563311">
        <ele>80.1</ele>
        <time>2018-05-10T07:40:08Z</time>
      </trkpt>
      <trkpt lat="43.746565" lon="3.563188">
        <ele>80.3</ele>
        <time>2018-05-10T07:40:14Z</time>
      </trkpt>
      <trkpt lat="43.746598" lon="3.563043">
        <ele>80.5</ele>
        <time>2018-05-10T07:40:21Z</time>
      </trkpt>
      <trkpt lat="43.746553" lon="3.562898">
        <ele>80.9</ele>
        <time>2018-05-10T07:40:28Z</time>
      </trkpt>
      <trkpt lat="43.746501" lon="3.562755">
        <ele>81.4</ele>
        <time>2018-05-10T07:40:35Z</time>
      </trkpt>
      <trkpt lat="43.746453" lon="3.562640">
        <ele>82.2</ele>
        <time>2018-05-10T07:40:42Z</time>
      </trkpt>
      <trkpt lat="43.746426" lon="3.562521">
        <ele>82.6</ele>
        <time>2018-05-10T07:40:48Z</time>
      </trkpt>
      <trkpt lat="43.746407" lon="3.562387">
        <ele>82.8</ele>
        <time>2018-05-10T07:40:55Z</time>
      </trkpt>
      <trkpt lat="43.746397" lon="3.562277">
        <ele>83.1</ele>
        <time>2018-05-10T07:41:01Z</time>
      </trkpt>
      <trkpt lat="43.746437" lon="3.562166">
        <ele>83.4</ele>
        <time>2018-05-10T07:41:08Z</time>
      </trkpt>
      <trkpt lat="43.746491" lon="3.562068">
        <ele>83.4</ele>
        <time>2018-05-10T07:41:14Z</time>
      </trkpt>
      <trkpt lat="43.746567" lon="3.561994">
        <ele>83.4</ele>
        <time>2018-05-10T07:41:20Z</time>
      </trkpt>
      <trkpt lat="43.746630" lon="3.561893">
        <ele>83.4</ele>
        <time>2018-05-10T07:41:26Z</time>
      </trkpt>
      <trkpt lat="43.746716" lon="3.561798">
        <ele>83.7</ele>
        <time>2018-05-10T07:41:32Z</time>
      </trkpt>
      <trkpt lat="43.746809" lon="3.561694">
        <ele>84.2</ele>
        <time>2018-05-10T07:41:39Z</time>
      </trkpt>
      <trkpt lat="43.746872" lon="3.561579">
        <ele>84.8</ele>
        <time>2018-05-10T07:41:45Z</time>
      </trkpt>
      <trkpt lat="43.746947" lon="3.561488">
        <ele>85.3</ele>
        <time>2018-05-10T07:41:51Z</time>
      </trkpt>
      <trkpt lat="43.747010" lon="3.561376">
        <ele>86.1</ele>
        <time>2018-05-10T07:41:58Z</time>
      </trkpt>
      <trkpt lat="43.747079" lon="3.561280">
        <ele>86.7</ele>
        <time>2018-05-10T07:42:04Z</time>
      </trkpt>
      <trkpt lat="43.747156" lon="3.561195">
        <ele>86.7</ele>
        <time>2018-05-10T07:42:10Z</time>
      </trkpt>
      <trkpt lat="43.747256" lon="3.561122">
        <ele>86.9</ele>
        <time>2018-05-10T07:42:17Z</time>
      </trkpt>
      <trkpt lat="43.747337" lon="3.561030">
        <ele>86.8</ele>
        <time>2018-05-10T07:42:25Z</time>
      </trkpt>
      <trkpt lat="43.747423" lon="3.560988">
        <ele>86.6</ele>
        <time>2018-05-10T07:42:31Z</time>
      </trkpt>
      <trkpt lat="43.747506" lon="3.560942">
        <ele>86.4</ele>
        <time>2018-05-10T07:42:37Z</time>
      </trkpt>
      <trkpt lat="43.747593" lon="3.560875">
        <ele>86.3</ele>
        <time>2018-05-10T07:42:45Z</time>
      </trkpt>
      <trkpt lat="43.747691" lon="3.560839">
        <ele>86.3</ele>
        <time>2018-05-10T07:42:51Z</time>
      </trkpt>
      <trkpt lat="43.747794" lon="3.560796">
        <ele>86.9</ele>
        <time>2018-05-10T07:42:58Z</time>
      </trkpt>
      <trkpt lat="43.747899" lon="3.560781">
        <ele>87.8</ele>
        <time>2018-05-10T07:43:05Z</time>
      </trkpt>
      <trkpt lat="43.747978" lon="3.560794">
        <ele>88.7</ele>
        <time>2018-05-10T07:43:12Z</time>
      </trkpt>
      <trkpt lat="43.748079" lon="3.560827">
        <ele>88.8</ele>
        <time>2018-05-10T07:43:18Z</time>
      </trkpt>
      <trkpt lat="43.748166" lon="3.560892">
        <ele>89.7</ele>
        <time>2018-05-10T07:43:25Z</time>
      </trkpt>
      <trkpt lat="43.748255" lon="3.560945">
        <ele>89.9</ele>
        <time>2018-05-10T07:43:32Z</time>
      </trkpt>
      <trkpt lat="43.748365" lon="3.561006">
        <ele>90.4</ele>
        <time>2018-05-10T07:43:39Z</time>
      </trkpt>
      <trkpt lat="43.748448" lon="3.561072">
        <ele>91.1</ele>
        <time>2018-05-10T07:43:46Z</time>
      </trkpt>
      <trkpt lat="43.748544" lon="3.561128">
        <ele>91.5</ele>
        <time>2018-05-10T07:43:53Z</time>
      </trkpt>
      <trkpt lat="43.748633" lon="3.561192">
        <ele>92.2</ele>
        <time>2018-05-10T07:44:00Z</time>
      </trkpt>
      <trkpt lat="43.748718" lon="3.561260">
        <ele>92.5</ele>
        <time>2018-05-10T07:44:07Z</time>
      </trkpt>
      <trkpt lat="43.748809" lon="3.561350">
        <ele>93.1</ele>
        <time>2018-05-10T07:44:15Z</time>
      </trkpt>
      <trkpt lat="43.748887" lon="3.561451">
        <ele>93.4</ele>
        <time>2018-05-10T07:44:22Z</time>
      </trkpt>
      <trkpt lat="43.748955" lon="3.561551">
        <ele>93.8</ele>
        <time>2018-05-10T07:44:28Z</time>
      </trkpt>
      <trkpt lat="43.749030" lon="3.561666">
        <ele>94.8</ele>
        <time>2018-05-10T07:44:35Z</time>
      </trkpt>
      <trkpt lat="43.749134" lon="3.561759">
        <ele>95.5</ele>
        <time>2018-05-10T07:44:42Z</time>
      </trkpt>
      <trkpt lat="43.749221" lon="3.561838">
        <ele>96.0</ele>
        <time>2018-05-10T07:44:48Z</time>
      </trkpt>
      <trkpt lat="43.749324" lon="3.561859">
        <ele>96.8</ele>
        <time>2018-05-10T07:44:54Z</time>
      </trkpt>
      <trkpt lat="43.749436" lon="3.561940">
        <ele>97.9</ele>
        <time>2018-05-10T07:45:05Z</time>
      </trkpt>
      <trkpt lat="43.749515" lon="3.561999">
        <ele>98.4</ele>
        <time>2018-05-10T07:45:12Z</time>
      </trkpt>
      <trkpt lat="43.749603" lon="3.562039">
        <ele>99.4</ele>
        <time>2018-05-10T07:45:19Z</time>
      </trkpt>
      <trkpt lat="43.749707" lon="3.562065">
        <ele>99.9</ele>
        <time>2018-05-10T07:45:26Z</time>
      </trkpt>
      <trkpt lat="43.749813" lon="3.562014">
        <ele>100.1</ele>
        <time>2018-05-10T07:45:34Z</time>
      </trkpt>
      <trkpt lat="43.749909" lon="3.561915">
        <ele>100.7</ele>
        <time>2018-05-10T07:45:41Z</time>
      </trkpt>
      <trkpt lat="43.750035" lon="3.561841">
        <ele>102.5</ele>
        <time>2018-05-10T07:45:52Z</time>
      </trkpt>
      <trkpt lat="43.750094" lon="3.561752">
        <ele>104.3</ele>
        <time>2018-05-10T07:46:01Z</time>
      </trkpt>
      <trkpt lat="43.750106" lon="3.561626">
        <ele>105.2</ele>
        <time>2018-05-10T07:46:10Z</time>
      </trkpt>
      <trkpt lat="43.750112" lon="3.561457">
        <ele>106.5</ele>
        <time>2018-05-10T07:46:20Z</time>
      </trkpt>
      <trkpt lat="43.750124" lon="3.561313">
        <ele>107.5</ele>
        <time>2018-05-10T07:46:29Z</time>
      </trkpt>
      <trkpt lat="43.750198" lon="3.561250">
        <ele>108.6</ele>
        <time>2018-05-10T07:46:40Z</time>
      </trkpt>
      <trkpt lat="43.750273" lon="3.561192">
        <ele>110.2</ele>
        <time>2018-05-10T07:46:48Z</time>
      </trkpt>
      <trkpt lat="43.750375" lon="3.561151">
        <ele>111.1</ele>
        <time>2018-05-10T07:46:56Z</time>
      </trkpt>
      <trkpt lat="43.750396" lon="3.561096">
        <ele>111.8</ele>
        <time>2018-05-10T07:47:18Z</time>
      </trkpt>
      <trkpt lat="43.750469" lon="3.560978">
        <ele>113.9</ele>
        <time>2018-05-10T07:47:28Z</time>
      </trkpt>
      <trkpt lat="43.750507" lon="3.561017">
        <ele>115.8</ele>
        <time>2018-05-10T07:47:39Z</time>
      </trkpt>
      <trkpt lat="43.750539" lon="3.561052">
        <ele>122.3</ele>
        <time>2018-05-10T07:48:03Z</time>
      </trkpt>
      <trkpt lat="43.750498" lon="3.561200">
        <ele>126.3</ele>
        <time>2018-05-10T07:48:17Z</time>
      </trkpt>
      <trkpt lat="43.750502" lon="3.561343">
        <ele>128.1</ele>
        <time>2018-05-10T07:48:25Z</time>
      </trkpt>
      <trkpt lat="43.750509" lon="3.561478">
        <ele>129.9</ele>
        <time>2018-05-10T07:48:34Z</time>
      </trkpt>
      <trkpt lat="43.750567" lon="3.561420">
        <ele>131.4</ele>
        <time>2018-05-10T07:48:43Z</time>
      </trkpt>
      <trkpt lat="43.750639" lon="3.561319">
        <ele>132.4</ele>
        <time>2018-05-10T07:49:44Z</time>
      </trkpt>
      <trkpt lat="43.750680" lon="3.561293">
        <ele>133.8</ele>
        <time>2018-05-10T07:50:45Z</time>
      </trkpt>
      <trkpt lat="43.750786" lon="3.561325">
        <ele>135.3</ele>
        <time>2018-05-10T07:50:54Z</time>
      </trkpt>
      <trkpt lat="43.750882" lon="3.561359">
        <ele>136.6</ele>
        <time>2018-05-10T07:51:02Z</time>
      </trkpt>
      <trkpt lat="43.750968" lon="3.561406">
        <ele>137.7</ele>
        <time>2018-05-10T07:51:09Z</time>
      </trkpt>
      <trkpt lat="43.751077" lon="3.561454">
        <ele>138.8</ele>
        <time>2018-05-10T07:51:18Z</time>
      </trkpt>
      <trkpt lat="43.751181" lon="3.561502">
        <ele>139.3</ele>
        <time>2018-05-10T07:51:26Z</time>
      </trkpt>
      <trkpt lat="43.751288" lon="3.561538">
        <ele>139.9</ele>
        <time>2018-05-10T07:51:34Z</time>
      </trkpt>
      <trkpt lat="43.751401" lon="3.561532">
        <ele>140.5</ele>
        <time>2018-05-10T07:51:42Z</time>
      </trkpt>
      <trkpt lat="43.751507" lon="3.561538">
        <ele>141.3</ele>
        <time>2018-05-10T07:51:51Z</time>
      </trkpt>
      <trkpt lat="43.751607" lon="3.561577">
        <ele>142.8</ele>
        <time>2018-05-10T07:52:00Z</time>
      </trkpt>
      <trkpt lat="43.751685" lon="3.561655">
        <ele>144.6</ele>
        <time>2018-05-10T07:52:07Z</time>
      </trkpt>
      <trkpt lat="43.751765" lon="3.561761">
        <ele>146.9</ele>
        <time>2018-05-10T07:52:15Z</time>
      </trkpt>
      <trkpt lat="43.751855" lon="3.561841">
        <ele>149.4</ele>
        <time>2018-05-10T07:52:23Z</time>
      </trkpt>
      <trkpt lat="43.751937" lon="3.561928">
        <ele>151.3</ele>
        <time>2018-05-10T07:52:31Z</time>
      </trkpt>
      <trkpt lat="43.752020" lon="3.562009">
        <ele>152.9</ele>
        <time>2018-05-10T07:52:39Z</time>
      </trkpt>
      <trkpt lat="43.752085" lon="3.562090">
        <ele>154.9</ele>
        <time>2018-05-10T07:52:48Z</time>
      </trkpt>
      <trkpt lat="43.752146" lon="3.562194">
        <ele>156.7</ele>
        <time>2018-05-10T07:52:55Z</time>
      </trkpt>
      <trkpt lat="43.752193" lon="3.562309">
        <ele>158.8</ele>
        <time>2018-05-10T07:53:03Z</time>
      </trkpt>
      <trkpt lat="43.752284" lon="3.562365">
        <ele>160.3</ele>
        <time>2018-05-10T07:53:10Z</time>
      </trkpt>
      <trkpt lat="43.752351" lon="3.562442">
        <ele>161.8</ele>
        <time>2018-05-10T07:53:17Z</time>
      </trkpt>
      <trkpt lat="43.752436" lon="3.562528">
        <ele>163.3</ele>
        <time>2018-05-10T07:53:25Z</time>
      </trkpt>
      <trkpt lat="43.752508" lon="3.562593">
        <ele>165.0</ele>
        <time>2018-05-10T07:53:32Z</time>
      </trkpt>
      <trkpt lat="43.752598" lon="3.562656">
        <ele>167.1</ele>
        <time>2018-05-10T07:53:39Z</time>
      </trkpt>
      <trkpt lat="43.752665" lon="3.562769">
        <ele>169.3</ele>
        <time>2018-05-10T07:53:47Z</time>
      </trkpt>
      <trkpt lat="43.752743" lon="3.562837">
        <ele>171.3</ele>
        <time>2018-05-10T07:53:55Z</time>
      </trkpt>
      <trkpt lat="43.752848" lon="3.562862">
        <ele>174.4</ele>
        <time>2018-05-10T07:54:05Z</time>
      </trkpt>
      <trkpt lat="43.752942" lon="3.562884">
        <ele>176.6</ele>
        <time>2018-05-10T07:54:13Z</time>
      </trkpt>
      <trkpt lat="43.753039" lon="3.562860">
        <ele>178.5</ele>
        <time>2018-05-10T07:54:22Z</time>
      </trkpt>
      <trkpt lat="43.753150" lon="3.562881">
        <ele>180.6</ele>
        <time>2018-05-10T07:54:30Z</time>
      </trkpt>
      <trkpt lat="43.753247" lon="3.562821">
        <ele>182.2</ele>
        <time>2018-05-10T07:54:38Z</time>
      </trkpt>
      <trkpt lat="43.753347" lon="3.562777">
        <ele>183.7</ele>
        <time>2018-05-10T07:54:46Z</time>
      </trkpt>
      <trkpt lat="43.753448" lon="3.562849">
        <ele>185.1</ele>
        <time>2018-05-10T07:54:55Z</time>
      </trkpt>
      <trkpt lat="43.753452" lon="3.562984">
        <ele>186.0</ele>
        <time>2018-05-10T07:55:03Z</time>
      </trkpt>
      <trkpt lat="43.753508" lon="3.563098">
        <ele>185.8</ele>
        <time>2018-05-10T07:55:11Z</time>
      </trkpt>
      <trkpt lat="43.753540" lon="3.563232">
        <ele>185.6</ele>
        <time>2018-05-10T07:55:18Z</time>
      </trkpt>
      <trkpt lat="43.753578" lon="3.563384">
        <ele>185.3</ele>
        <time>2018-05-10T07:55:26Z</time>
      </trkpt>
      <trkpt lat="43.753654" lon="3.563484">
        <ele>185.7</ele>
        <time>2018-05-10T07:55:34Z</time>
      </trkpt>
      <trkpt lat="43.753754" lon="3.563533">
        <ele>186.1</ele>
        <time>2018-05-10T07:55:41Z</time>
      </trkpt>
      <trkpt lat="43.753875" lon="3.563518">
        <ele>186.9</ele>
        <time>2018-05-10T07:55:49Z</time>
      </trkpt>
      <trkpt lat="43.753995" lon="3.563551">
        <ele>188.5</ele>
        <time>2018-05-10T07:55:57Z</time>
      </trkpt>
      <trkpt lat="43.754099" lon="3.563619">
        <ele>189.8</ele>
        <time>2018-05-10T07:56:05Z</time>
      </trkpt>
      <trkpt lat="43.754206" lon="3.563661">
        <ele>189.3</ele>
        <time>2018-05-10T07:56:13Z</time>
      </trkpt>
      <trkpt lat="43.754301" lon="3.563749">
        <ele>188.4</ele>
        <time>2018-05-10T07:56:21Z</time>
      </trkpt>
      <trkpt lat="43.754383" lon="3.563847">
        <ele>188.2</ele>
        <time>2018-05-10T07:56:29Z</time>
      </trkpt>
      <trkpt lat="43.754450" lon="3.563965">
        <ele>188.9</ele>
        <time>2018-05-10T07:56:36Z</time>
      </trkpt>
      <trkpt lat="43.754554" lon="3.564068">
        <ele>190.5</ele>
        <time>2018-05-10T07:56:44Z</time>
      </trkpt>
      <trkpt lat="43.754617" lon="3.564221">
        <ele>191.6</ele>
        <time>2018-05-10T07:56:52Z</time>
      </trkpt>
      <trkpt lat="43.754671" lon="3.564371">
        <ele>193.1</ele>
        <time>2018-05-10T07:57:01Z</time>
      </trkpt>
      <trkpt lat="43.754739" lon="3.564487">
        <ele>194.4</ele>
        <time>2018-05-10T07:57:15Z</time>
      </trkpt>
      <trkpt lat="43.754828" lon="3.564545">
        <ele>194.9</ele>
        <time>2018-05-10T07:57:24Z</time>
      </trkpt>
      <trkpt lat="43.754924" lon="3.564618">
        <ele>195.5</ele>
        <time>2018-05-10T07:57:31Z</time>
      </trkpt>
      <trkpt lat="43.755004" lon="3.564729">
        <ele>196.5</ele>
        <time>2018-05-10T07:57:38Z</time>
      </trkpt>
      <trkpt lat="43.755078" lon="3.564842">
        <ele>198.0</ele>
        <time>2018-05-10T07:57:46Z</time>
      </trkpt>
      <trkpt lat="43.755165" lon="3.564929">
        <ele>199.8</ele>
        <time>2018-05-10T07:57:54Z</time>
      </trkpt>
      <trkpt lat="43.755248" lon="3.565005">
        <ele>202.2</ele>
        <time>2018-05-10T07:58:01Z</time>
      </trkpt>
      <trkpt lat="43.755320" lon="3.565130">
        <ele>203.9</ele>
        <time>2018-05-10T07:58:08Z</time>
      </trkpt>
      <trkpt lat="43.755401" lon="3.565262">
        <ele>205.3</ele>
        <time>2018-05-10T07:58:17Z</time>
      </trkpt>
      <trkpt lat="43.755459" lon="3.565383">
        <ele>207.8</ele>
        <time>2018-05-10T07:58:27Z</time>
      </trkpt>
      <trkpt lat="43.755505" lon="3.565281">
        <ele>210.7</ele>
        <time>2018-05-10T07:58:38Z</time>
      </trkpt>
      <trkpt lat="43.755483" lon="3.565112">
        <ele>211.7</ele>
        <time>2018-05-10T07:58:46Z</time>
      </trkpt>
      <trkpt lat="43.755432" lon="3.564961">
        <ele>212.4</ele>
        <time>2018-05-10T07:58:54Z</time>
      </trkpt>
      <trkpt lat="43.755425" lon="3.564823">
        <ele>213.4</ele>
        <time>2018-05-10T07:59:01Z</time>
      </trkpt>
      <trkpt lat="43.755419" lon="3.564718">
        <ele>213.6</ele>
        <time>2018-05-10T07:59:18Z</time>
      </trkpt>
      <trkpt lat="43.755477" lon="3.564689">
        <ele>217.2</ele>
        <time>2018-05-10T07:59:46Z</time>
      </trkpt>
      <trkpt lat="43.755486" lon="3.564641">
        <ele>219.5</ele>
        <time>2018-05-10T07:59:58Z</time>
      </trkpt>
      <trkpt lat="43.755558" lon="3.564639">
        <ele>223.3</ele>
        <time>2018-05-10T08:00:11Z</time>
      </trkpt>
      <trkpt lat="43.755617" lon="3.564794">
        <ele>225.6</ele>
        <time>2018-05-10T08:00:23Z</time>
      </trkpt>
      <trkpt lat="43.755637" lon="3.564916">
        <ele>227.2</ele>
        <time>2018-05-10T08:00:32Z</time>
      </trkpt>
      <trkpt lat="43.755654" lon="3.564920">
        <ele>229.0</ele>
        <time>2018-05-10T08:00:43Z</time>
      </trkpt>
      <trkpt lat="43.755681" lon="3.564791">
        <ele>230.6</ele>
        <time>2018-05-10T08:00:52Z</time>
      </trkpt>
      <trkpt lat="43.755686" lon="3.564651">
        <ele>233.2</ele>
        <time>2018-05-10T08:01:05Z</time>
      </trkpt>
      <trkpt lat="43.755675" lon="3.564527">
        <ele>235.1</ele>
        <time>2018-05-10T08:01:15Z</time>
      </trkpt>
      <trkpt lat="43.755708" lon="3.564486">
        <ele>236.8</ele>
        <time>2018-05-10T08:01:27Z</time>
      </trkpt>
      <trkpt lat="43.755800" lon="3.564581">
        <ele>240.2</ele>
        <time>2018-05-10T08:01:41Z</time>
      </trkpt>
      <trkpt lat="43.755824" lon="3.564485">
        <ele>244.0</ele>
        <time>2018-05-10T08:01:55Z</time>
      </trkpt>
      <trkpt lat="43.755794" lon="3.564371">
        <ele>244.1</ele>
        <time>2018-05-10T08:02:06Z</time>
      </trkpt>
      <trkpt lat="43.755750" lon="3.564288">
        <ele>245.2</ele>
        <time>2018-05-10T08:02:43Z</time>
      </trkpt>
      <trkpt lat="43.755681" lon="3.564192">
        <ele>247.0</ele>
        <time>2018-05-10T08:02:53Z</time>
      </trkpt>
      <trkpt lat="43.755715" lon="3.564141">
        <ele>247.0</ele>
        <time>2018-05-10T08:03:06Z</time>
      </trkpt>
      <trkpt lat="43.755812" lon="3.564189">
        <ele>247.9</ele>
        <time>2018-05-10T08:03:15Z</time>
      </trkpt>
      <trkpt lat="43.755908" lon="3.564285">
        <ele>249.9</ele>
        <time>2018-05-10T08:03:24Z</time>
      </trkpt>
      <trkpt lat="43.756002" lon="3.564384">
        <ele>252.6</ele>
        <time>2018-05-10T08:03:35Z</time>
      </trkpt>
      <trkpt lat="43.756060" lon="3.564481">
        <ele>255.7</ele>
        <time>2018-05-10T08:03:47Z</time>
      </trkpt>
      <trkpt lat="43.756053" lon="3.564301">
        <ele>257.3</ele>
        <time>2018-05-10T08:03:58Z</time>
      </trkpt>
      <trkpt lat="43.755987" lon="3.564161">
        <ele>257.9</ele>
        <time>2018-05-10T08:04:07Z</time>
      </trkpt>
      <trkpt lat="43.755902" lon="3.564052">
        <ele>258.6</ele>
        <time>2018-05-10T08:04:16Z</time>
      </trkpt>
      <trkpt lat="43.755823" lon="3.563982">
        <ele>259.8</ele>
        <time>2018-05-10T08:04:25Z</time>
      </trkpt>
      <trkpt lat="43.755747" lon="3.563908">
        <ele>260.7</ele>
        <time>2018-05-10T08:04:34Z</time>
      </trkpt>
      <trkpt lat="43.755696" lon="3.563795">
        <ele>262.8</ele>
        <time>2018-05-10T08:04:44Z</time>
      </trkpt>
      <trkpt lat="43.755742" lon="3.563758">
        <ele>264.8</ele>
        <time>2018-05-10T08:04:56Z</time>
      </trkpt>
      <trkpt lat="43.755802" lon="3.563786">
        <ele>267.2</ele>
        <time>2018-05-10T08:05:09Z</time>
      </trkpt>
      <trkpt lat="43.755827" lon="3.563655">
        <ele>270.2</ele>
        <time>2018-05-10T08:05:23Z</time>
      </trkpt>
      <trkpt lat="43.755905" lon="3.563673">
        <ele>273.1</ele>
        <time>2018-05-10T08:05:36Z</time>
      </trkpt>
      <trkpt lat="43.755982" lon="3.563765">
        <ele>275.2</ele>
        <time>2018-05-10T08:05:46Z</time>
      </trkpt>
      <trkpt lat="43.756072" lon="3.563831">
        <ele>277.2</ele>
        <time>2018-05-10T08:05:56Z</time>
      </trkpt>
      <trkpt lat="43.756146" lon="3.563907">
        <ele>279.3</ele>
        <time>2018-05-10T08:06:05Z</time>
      </trkpt>
      <trkpt lat="43.756174" lon="3.563827">
        <ele>280.8</ele>
        <time>2018-05-10T08:06:33Z</time>
      </trkpt>
      <trkpt lat="43.756140" lon="3.563708">
        <ele>282.9</ele>
        <time>2018-05-10T08:06:42Z</time>
      </trkpt>
      <trkpt lat="43.756161" lon="3.563580">
        <ele>285.0</ele>
        <time>2018-05-10T08:06:51Z</time>
      </trkpt>
      <trkpt lat="43.756199" lon="3.563426">
        <ele>285.7</ele>
        <time>2018-05-10T08:07:01Z</time>
      </trkpt>
      <trkpt lat="43.756249" lon="3.563281">
        <ele>285.7</ele>
        <time>2018-05-10T08:07:11Z</time>
      </trkpt>
      <trkpt lat="43.756321" lon="3.563171">
        <ele>286.2</ele>
        <time>2018-05-10T08:07:20Z</time>
      </trkpt>
      <trkpt lat="43.756392" lon="3.563075">
        <ele>286.9</ele>
        <time>2018-05-10T08:07:29Z</time>
      </trkpt>
      <trkpt lat="43.756475" lon="3.562988">
        <ele>287.5</ele>
        <time>2018-05-10T08:08:05Z</time>
      </trkpt>
      <trkpt lat="43.756505" lon="3.562821">
        <ele>288.7</ele>
        <time>2018-05-10T08:08:14Z</time>
      </trkpt>
      <trkpt lat="43.756476" lon="3.562655">
        <ele>291.3</ele>
        <time>2018-05-10T08:08:25Z</time>
      </trkpt>
      <trkpt lat="43.756401" lon="3.562562">
        <ele>292.7</ele>
        <time>2018-05-10T08:08:36Z</time>
      </trkpt>
      <trkpt lat="43.756333" lon="3.562468">
        <ele>293.3</ele>
        <time>2018-05-10T08:08:45Z</time>
      </trkpt>
      <trkpt lat="43.756329" lon="3.562333">
        <ele>295.0</ele>
        <time>2018-05-10T08:08:54Z</time>
      </trkpt>
      <trkpt lat="43.756445" lon="3.562293">
        <ele>297.0</ele>
        <time>2018-05-10T08:09:04Z</time>
      </trkpt>
      <trkpt lat="43.756583" lon="3.562246">
        <ele>299.5</ele>
        <time>2018-05-10T08:09:16Z</time>
      </trkpt>
      <trkpt lat="43.756721" lon="3.562214">
        <ele>302.0</ele>
        <time>2018-05-10T08:09:28Z</time>
      </trkpt>
      <trkpt lat="43.756856" lon="3.562171">
        <ele>303.8</ele>
        <time>2018-05-10T08:09:40Z</time>
      </trkpt>
      <trkpt lat="43.756964" lon="3.562161">
        <ele>304.8</ele>
        <time>2018-05-10T08:09:49Z</time>
      </trkpt>
      <trkpt lat="43.757097" lon="3.562231">
        <ele>305.0</ele>
        <time>2018-05-10T08:09:59Z</time>
      </trkpt>
      <trkpt lat="43.757243" lon="3.562427">
        <ele>305.3</ele>
        <time>2018-05-10T08:10:10Z</time>
      </trkpt>
      <trkpt lat="43.757271" lon="3.562612">
        <ele>306.7</ele>
        <time>2018-05-10T08:10:23Z</time>
      </trkpt>
      <trkpt lat="43.757282" lon="3.562753">
        <ele>309.4</ele>
        <time>2018-05-10T08:10:34Z</time>
      </trkpt>
      <trkpt lat="43.757341" lon="3.562848">
        <ele>309.3</ele>
        <time>2018-05-10T08:10:45Z</time>
      </trkpt>
      <trkpt lat="43.757406" lon="3.562729">
        <ele>311.6</ele>
        <time>2018-05-10T08:10:58Z</time>
      </trkpt>
      <trkpt lat="43.757496" lon="3.562637">
        <ele>313.3</ele>
        <time>2018-05-10T08:11:06Z</time>
      </trkpt>
      <trkpt lat="43.757620" lon="3.562680">
        <ele>314.7</ele>
        <time>2018-05-10T08:11:16Z</time>
      </trkpt>
      <trkpt lat="43.757722" lon="3.562712">
        <ele>315.5</ele>
        <time>2018-05-10T08:11:24Z</time>
      </trkpt>
      <trkpt lat="43.757821" lon="3.562657">
        <ele>316.2</ele>
        <time>2018-05-10T08:11:32Z</time>
      </trkpt>
      <trkpt lat="43.757915" lon="3.562561">
        <ele>317.4</ele>
        <time>2018-05-10T08:11:41Z</time>
      </trkpt>
      <trkpt lat="43.758009" lon="3.562486">
        <ele>319.3</ele>
        <time>2018-05-10T08:11:51Z</time>
      </trkpt>
      <trkpt lat="43.758094" lon="3.562397">
        <ele>320.4</ele>
        <time>2018-05-10T08:12:00Z</time>
      </trkpt>
      <trkpt lat="43.758151" lon="3.562291">
        <ele>321.4</ele>
        <time>2018-05-10T08:12:07Z</time>
      </trkpt>
      <trkpt lat="43.758233" lon="3.562165">
        <ele>322.7</ele>
        <time>2018-05-10T08:12:16Z</time>
      </trkpt>
      <trkpt lat="43.758339" lon="3.562031">
        <ele>324.6</ele>
        <time>2018-05-10T08:12:26Z</time>
      </trkpt>
      <trkpt lat="43.758428" lon="3.561916">
        <ele>327.0</ele>
        <time>2018-05-10T08:12:35Z</time>
      </trkpt>
      <trkpt lat="43.758502" lon="3.561788">
        <ele>329.5</ele>
        <time>2018-05-10T08:12:45Z</time>
      </trkpt>
      <trkpt lat="43.758602" lon="3.561809">
        <ele>329.9</ele>
        <time>2018-05-10T08:12:57Z</time>
      </trkpt>
      <trkpt lat="43.758679" lon="3.561923">
        <ele>331.5</ele>
        <time>2018-05-10T08:13:07Z</time>
      </trkpt>
      <trkpt lat="43.758792" lon="3.561998">
        <ele>332.6</ele>
        <time>2018-05-10T08:13:16Z</time>
      </trkpt>
      <trkpt lat="43.758886" lon="3.562027">
        <ele>333.7</ele>
        <time>2018-05-10T08:13:23Z</time>
      </trkpt>
      <trkpt lat="43.758986" lon="3.561938">
        <ele>336.4</ele>
        <time>2018-05-10T08:13:32Z</time>
      </trkpt>
      <trkpt lat="43.759034" lon="3.561798">
        <ele>337.8</ele>
        <time>2018-05-10T08:13:40Z</time>
      </trkpt>
      <trkpt lat="43.759079" lon="3.561616">
        <ele>338.4</ele>
        <time>2018-05-10T08:13:48Z</time>
      </trkpt>
      <trkpt lat="43.759166" lon="3.561486">
        <ele>340.0</ele>
        <time>2018-05-10T08:13:58Z</time>
      </trkpt>
      <trkpt lat="43.759230" lon="3.561352">
        <ele>340.9</ele>
        <time>2018-05-10T08:14:07Z</time>
      </trkpt>
      <trkpt lat="43.759253" lon="3.561208">
        <ele>341.9</ele>
        <time>2018-05-10T08:14:15Z</time>
      </trkpt>
      <trkpt lat="43.759300" lon="3.561057">
        <ele>345.9</ele>
        <time>2018-05-10T08:14:24Z</time>
      </trkpt>
      <trkpt lat="43.759354" lon="3.560941">
        <ele>348.9</ele>
        <time>2018-05-10T08:14:32Z</time>
      </trkpt>
      <trkpt lat="43.759410" lon="3.560831">
        <ele>349.2</ele>
        <time>2018-05-10T08:14:40Z</time>
      </trkpt>
      <trkpt lat="43.759476" lon="3.560710">
        <ele>349.6</ele>
        <time>2018-05-10T08:14:48Z</time>
      </trkpt>
      <trkpt lat="43.759532" lon="3.560561">
        <ele>349.0</ele>
        <time>2018-05-10T08:14:58Z</time>
      </trkpt>
      <trkpt lat="43.759600" lon="3.560451">
        <ele>350.2</ele>
        <time>2018-05-10T08:15:08Z</time>
      </trkpt>
      <trkpt lat="43.759666" lon="3.560354">
        <ele>353.0</ele>
        <time>2018-05-10T08:15:18Z</time>
      </trkpt>
      <trkpt lat="43.759711" lon="3.560304">
        <ele>352.3</ele>
        <time>2018-05-10T08:17:17Z</time>
      </trkpt>
      <trkpt lat="43.759728" lon="3.560277">
        <ele>353.6</ele>
        <time>2018-05-10T08:18:06Z</time>
      </trkpt>
      <trkpt lat="43.759795" lon="3.560146">
        <ele>356.1</ele>
        <time>2018-05-10T08:18:15Z</time>
      </trkpt>
      <trkpt lat="43.759833" lon="3.560020">
        <ele>357.1</ele>
        <time>2018-05-10T08:18:24Z</time>
      </trkpt>
      <trkpt lat="43.759849" lon="3.559893">
        <ele>359.8</ele>
        <time>2018-05-10T08:18:43Z</time>
      </trkpt>
      <trkpt lat="43.759865" lon="3.559751">
        <ele>360.4</ele>
        <time>2018-05-10T08:18:51Z</time>
      </trkpt>
      <trkpt lat="43.759902" lon="3.559608">
        <ele>361.8</ele>
        <time>2018-05-10T08:18:59Z</time>
      </trkpt>
      <trkpt lat="43.759945" lon="3.559467">
        <ele>363.7</ele>
        <time>2018-05-10T08:19:07Z</time>
      </trkpt>
      <trkpt lat="43.759998" lon="3.559314">
        <ele>366.4</ele>
        <time>2018-05-10T08:19:15Z</time>
      </trkpt>
      <trkpt lat="43.760042" lon="3.559158">
        <ele>369.8</ele>
        <time>2018-05-10T08:19:24Z</time>
      </trkpt>
      <trkpt lat="43.760061" lon="3.558999">
        <ele>372.0</ele>
        <time>2018-05-10T08:19:33Z</time>
      </trkpt>
      <trkpt lat="43.760123" lon="3.558879">
        <ele>374.0</ele>
        <time>2018-05-10T08:19:42Z</time>
      </trkpt>
      <trkpt lat="43.760147" lon="3.558749">
        <ele>376.3</ele>
        <time>2018-05-10T08:19:50Z</time>
      </trkpt>
      <trkpt lat="43.760177" lon="3.558600">
        <ele>379.1</ele>
        <time>2018-05-10T08:19:58Z</time>
      </trkpt>
      <trkpt lat="43.760239" lon="3.558461">
        <ele>380.1</ele>
        <time>2018-05-10T08:20:06Z</time>
      </trkpt>
      <trkpt lat="43.760285" lon="3.558304">
        <ele>382.3</ele>
        <time>2018-05-10T08:20:15Z</time>
      </trkpt>
      <trkpt lat="43.760320" lon="3.558167">
        <ele>383.9</ele>
        <time>2018-05-10T08:20:24Z</time>
      </trkpt>
      <trkpt lat="43.760331" lon="3.558025">
        <ele>385.1</ele>
        <time>2018-05-10T08:20:31Z</time>
      </trkpt>
      <trkpt lat="43.760380" lon="3.557872">
        <ele>387.8</ele>
        <time>2018-05-10T08:20:41Z</time>
      </trkpt>
      <trkpt lat="43.760425" lon="3.557725">
        <ele>388.8</ele>
        <time>2018-05-10T08:20:51Z</time>
      </trkpt>
      <trkpt lat="43.760430" lon="3.557593">
        <ele>389.8</ele>
        <time>2018-05-10T08:20:58Z</time>
      </trkpt>
      <trkpt lat="43.760442" lon="3.557432">
        <ele>391.0</ele>
        <time>2018-05-10T08:21:08Z</time>
      </trkpt>
      <trkpt lat="43.760425" lon="3.557298">
        <ele>392.2</ele>
        <time>2018-05-10T08:21:15Z</time>
      </trkpt>
      <trkpt lat="43.760384" lon="3.557158">
        <ele>394.3</ele>
        <time>2018-05-10T08:21:22Z</time>
      </trkpt>
      <trkpt lat="43.760327" lon="3.556998">
        <ele>396.9</ele>
        <time>2018-05-10T08:21:31Z</time>
      </trkpt>
      <trkpt lat="43.760308" lon="3.556848">
        <ele>399.1</ele>
        <time>2018-05-10T08:21:39Z</time>
      </trkpt>
      <trkpt lat="43.760318" lon="3.556675">
        <ele>400.5</ele>
        <time>2018-05-10T08:21:47Z</time>
      </trkpt>
      <trkpt lat="43.760351" lon="3.556506">
        <ele>402.6</ele>
        <time>2018-05-10T08:21:55Z</time>
      </trkpt>
      <trkpt lat="43.760375" lon="3.556358">
        <ele>406.3</ele>
        <time>2018-05-10T08:22:06Z</time>
      </trkpt>
      <trkpt lat="43.760442" lon="3.556232">
        <ele>407.3</ele>
        <time>2018-05-10T08:22:14Z</time>
      </trkpt>
      <trkpt lat="43.760548" lon="3.556115">
        <ele>408.6</ele>
        <time>2018-05-10T08:22:23Z</time>
      </trkpt>
      <trkpt lat="43.760632" lon="3.555966">
        <ele>411.1</ele>
        <time>2018-05-10T08:22:35Z</time>
      </trkpt>
      <trkpt lat="43.760711" lon="3.555873">
        <ele>412.3</ele>
        <time>2018-05-10T08:22:44Z</time>
      </trkpt>
      <trkpt lat="43.760807" lon="3.555817">
        <ele>413.3</ele>
        <time>2018-05-10T08:22:52Z</time>
      </trkpt>
      <trkpt lat="43.760918" lon="3.555787">
        <ele>414.1</ele>
        <time>2018-05-10T08:23:01Z</time>
      </trkpt>
      <trkpt lat="43.760970" lon="3.555717">
        <ele>414.0</ele>
        <time>2018-05-10T08:23:57Z</time>
      </trkpt>
      <trkpt lat="43.761058" lon="3.555637">
        <ele>416.0</ele>
        <time>2018-05-10T08:24:40Z</time>
      </trkpt>
      <trkpt lat="43.761120" lon="3.555549">
        <ele>417.3</ele>
        <time>2018-05-10T08:24:59Z</time>
      </trkpt>
      <trkpt lat="43.761204" lon="3.555470">
        <ele>418.3</ele>
        <time>2018-05-10T08:25:11Z</time>
      </trkpt>
      <trkpt lat="43.761278" lon="3.555438">
        <ele>420.4</ele>
        <time>2018-05-10T08:25:36Z</time>
      </trkpt>
      <trkpt lat="43.761363" lon="3.555399">
        <ele>421.4</ele>
        <time>2018-05-10T08:25:49Z</time>
      </trkpt>
      <trkpt lat="43.761447" lon="3.555434">
        <ele>426.3</ele>
        <time>2018-05-10T08:26:33Z</time>
      </trkpt>
      <trkpt lat="43.761522" lon="3.555455">
        <ele>425.6</ele>
        <time>2018-05-10T08:27:15Z</time>
      </trkpt>
      <trkpt lat="43.761521" lon="3.555334">
        <ele>428.6</ele>
        <time>2018-05-10T08:27:27Z</time>
      </trkpt>
      <trkpt lat="43.761568" lon="3.555193">
        <ele>431.2</ele>
        <time>2018-05-10T08:27:36Z</time>
      </trkpt>
      <trkpt lat="43.761628" lon="3.555098">
        <ele>433.2</ele>
        <time>2018-05-10T08:27:44Z</time>
      </trkpt>
      <trkpt lat="43.761709" lon="3.555019">
        <ele>434.5</ele>
        <time>2018-05-10T08:27:51Z</time>
      </trkpt>
      <trkpt lat="43.761798" lon="3.554993">
        <ele>436.2</ele>
        <time>2018-05-10T08:27:57Z</time>
      </trkpt>
      <trkpt lat="43.761883" lon="3.554910">
        <ele>437.9</ele>
        <time>2018-05-10T08:28:04Z</time>
      </trkpt>
      <trkpt lat="43.761942" lon="3.554787">
        <ele>439.5</ele>
        <time>2018-05-10T08:28:12Z</time>
      </trkpt>
      <trkpt lat="43.762020" lon="3.554661">
        <ele>441.3</ele>
        <time>2018-05-10T08:28:20Z</time>
      </trkpt>
      <trkpt lat="43.762113" lon="3.554593">
        <ele>443.6</ele>
        <time>2018-05-10T08:28:28Z</time>
      </trkpt>
      <trkpt lat="43.762198" lon="3.554534">
        <ele>446.1</ele>
        <time>2018-05-10T08:28:36Z</time>
      </trkpt>
      <trkpt lat="43.762282" lon="3.554440">
        <ele>449.6</ele>
        <time>2018-05-10T08:28:45Z</time>
      </trkpt>
      <trkpt lat="43.762376" lon="3.554374">
        <ele>451.1</ele>
        <time>2018-05-10T08:28:53Z</time>
      </trkpt>
      <trkpt lat="43.762476" lon="3.554346">
        <ele>452.7</ele>
        <time>2018-05-10T08:29:01Z</time>
      </trkpt>
      <trkpt lat="43.762571" lon="3.554355">
        <ele>455.1</ele>
        <time>2018-05-10T08:29:08Z</time>
      </trkpt>
      <trkpt lat="43.762667" lon="3.554274">
        <ele>457.4</ele>
        <time>2018-05-10T08:29:16Z</time>
      </trkpt>
      <trkpt lat="43.762737" lon="3.554148">
        <ele>459.7</ele>
        <time>2018-05-10T08:29:24Z</time>
      </trkpt>
      <trkpt lat="43.762823" lon="3.554042">
        <ele>461.4</ele>
        <time>2018-05-10T08:29:31Z</time>
      </trkpt>
      <trkpt lat="43.762920" lon="3.553965">
        <ele>462.6</ele>
        <time>2018-05-10T08:29:39Z</time>
      </trkpt>
      <trkpt lat="43.763024" lon="3.553922">
        <ele>463.9</ele>
        <time>2018-05-10T08:29:46Z</time>
      </trkpt>
      <trkpt lat="43.763125" lon="3.553956">
        <ele>465.0</ele>
        <time>2018-05-10T08:29:53Z</time>
      </trkpt>
      <trkpt lat="43.763201" lon="3.554056">
        <ele>466.6</ele>
        <time>2018-05-10T08:30:01Z</time>
      </trkpt>
      <trkpt lat="43.763262" lon="3.554164">
        <ele>468.1</ele>
        <time>2018-05-10T08:30:07Z</time>
      </trkpt>
      <trkpt lat="43.763295" lon="3.554290">
        <ele>469.4</ele>
        <time>2018-05-10T08:30:14Z</time>
      </trkpt>
      <trkpt lat="43.763394" lon="3.554276">
        <ele>471.1</ele>
        <time>2018-05-10T08:30:21Z</time>
      </trkpt>
      <trkpt lat="43.763501" lon="3.554274">
        <ele>473.7</ele>
        <time>2018-05-10T08:30:29Z</time>
      </trkpt>
      <trkpt lat="43.763585" lon="3.554331">
        <ele>475.8</ele>
        <time>2018-05-10T08:30:37Z</time>
      </trkpt>
      <trkpt lat="43.763677" lon="3.554346">
        <ele>477.2</ele>
        <time>2018-05-10T08:30:43Z</time>
      </trkpt>
      <trkpt lat="43.763774" lon="3.554353">
        <ele>478.8</ele>
        <time>2018-05-10T08:30:50Z</time>
      </trkpt>
      <trkpt lat="43.763873" lon="3.554382">
        <ele>481.9</ele>
        <time>2018-05-10T08:30:59Z</time>
      </trkpt>
      <trkpt lat="43.763858" lon="3.554353">
        <ele>483.8</ele>
        <time>2018-05-10T08:31:11Z</time>
      </trkpt>
      <trkpt lat="43.763751" lon="3.554255">
        <ele>484.8</ele>
        <time>2018-05-10T08:31:18Z</time>
      </trkpt>
      <trkpt lat="43.763674" lon="3.554121">
        <ele>486.0</ele>
        <time>2018-05-10T08:31:26Z</time>
      </trkpt>
      <trkpt lat="43.763580" lon="3.554035">
        <ele>487.4</ele>
        <time>2018-05-10T08:31:34Z</time>
      </trkpt>
      <trkpt lat="43.763470" lon="3.553947">
        <ele>489.0</ele>
        <time>2018-05-10T08:31:42Z</time>
      </trkpt>
      <trkpt lat="43.763429" lon="3.553835">
        <ele>491.6</ele>
        <time>2018-05-10T08:31:54Z</time>
      </trkpt>
      <trkpt lat="43.763555" lon="3.553885">
        <ele>493.4</ele>
        <time>2018-05-10T08:32:03Z</time>
      </trkpt>
      <trkpt lat="43.763691" lon="3.553948">
        <ele>494.9</ele>
        <time>2018-05-10T08:32:13Z</time>
      </trkpt>
      <trkpt lat="43.763775" lon="3.554012">
        <ele>496.2</ele>
        <time>2018-05-10T08:32:20Z</time>
      </trkpt>
      <trkpt lat="43.763894" lon="3.554060">
        <ele>497.1</ele>
        <time>2018-05-10T08:32:28Z</time>
      </trkpt>
      <trkpt lat="43.764002" lon="3.554117">
        <ele>498.9</ele>
        <time>2018-05-10T08:32:38Z</time>
      </trkpt>
      <trkpt lat="43.764104" lon="3.554208">
        <ele>500.4</ele>
        <time>2018-05-10T08:32:48Z</time>
      </trkpt>
      <trkpt lat="43.764203" lon="3.554313">
        <ele>502.1</ele>
        <time>2018-05-10T08:32:59Z</time>
      </trkpt>
      <trkpt lat="43.764233" lon="3.554455">
        <ele>503.9</ele>
        <time>2018-05-10T08:33:09Z</time>
      </trkpt>
      <trkpt lat="43.764238" lon="3.554605">
        <ele>505.3</ele>
        <time>2018-05-10T08:33:21Z</time>
      </trkpt>
      <trkpt lat="43.764314" lon="3.554627">
        <ele>506.2</ele>
        <time>2018-05-10T08:35:30Z</time>
      </trkpt>
      <trkpt lat="43.764451" lon="3.554649">
        <ele>508.6</ele>
        <time>2018-05-10T08:35:42Z</time>
      </trkpt>
      <trkpt lat="43.764578" lon="3.554589">
        <ele>511.4</ele>
        <time>2018-05-10T08:35:54Z</time>
      </trkpt>
      <trkpt lat="43.764688" lon="3.554521">
        <ele>513.7</ele>
        <time>2018-05-10T08:36:04Z</time>
      </trkpt>
      <trkpt lat="43.764783" lon="3.554469">
        <ele>516.1</ele>
        <time>2018-05-10T08:36:13Z</time>
      </trkpt>
      <trkpt lat="43.764877" lon="3.554411">
        <ele>517.7</ele>
        <time>2018-05-10T08:36:21Z</time>
      </trkpt>
      <trkpt lat="43.764992" lon="3.554387">
        <ele>519.2</ele>
        <time>2018-05-10T08:36:29Z</time>
      </trkpt>
      <trkpt lat="43.765104" lon="3.554394">
        <ele>520.7</ele>
        <time>2018-05-10T08:36:39Z</time>
      </trkpt>
      <trkpt lat="43.765215" lon="3.554380">
        <ele>522.4</ele>
        <time>2018-05-10T08:36:48Z</time>
      </trkpt>
      <trkpt lat="43.765328" lon="3.554432">
        <ele>523.9</ele>
        <time>2018-05-10T08:37:00Z</time>
      </trkpt>
      <trkpt lat="43.765398" lon="3.554522">
        <ele>526.3</ele>
        <time>2018-05-10T08:37:41Z</time>
      </trkpt>
      <trkpt lat="43.765482" lon="3.554594">
        <ele>528.5</ele>
        <time>2018-05-10T08:37:51Z</time>
      </trkpt>
      <trkpt lat="43.765567" lon="3.554667">
        <ele>529.9</ele>
        <time>2018-05-10T08:38:00Z</time>
      </trkpt>
      <trkpt lat="43.765664" lon="3.554733">
        <ele>530.9</ele>
        <time>2018-05-10T08:38:08Z</time>
      </trkpt>
      <trkpt lat="43.765762" lon="3.554776">
        <ele>532.8</ele>
        <time>2018-05-10T08:38:41Z</time>
      </trkpt>
      <trkpt lat="43.765868" lon="3.554735">
        <ele>536.1</ele>
        <time>2018-05-10T08:38:51Z</time>
      </trkpt>
      <trkpt lat="43.765972" lon="3.554767">
        <ele>537.3</ele>
        <time>2018-05-10T08:39:00Z</time>
      </trkpt>
      <trkpt lat="43.766053" lon="3.554825">
        <ele>538.3</ele>
        <time>2018-05-10T08:39:10Z</time>
      </trkpt>
      <trkpt lat="43.766064" lon="3.554971">
        <ele>539.3</ele>
        <time>2018-05-10T08:39:18Z</time>
      </trkpt>
      <trkpt lat="43.766040" lon="3.555110">
        <ele>540.3</ele>
        <time>2018-05-10T08:39:27Z</time>
      </trkpt>
      <trkpt lat="43.766030" lon="3.555236">
        <ele>541.1</ele>
        <time>2018-05-10T08:39:34Z</time>
      </trkpt>
      <trkpt lat="43.766046" lon="3.555370">
        <ele>540.3</ele>
        <time>2018-05-10T08:39:48Z</time>
      </trkpt>
      <trkpt lat="43.766092" lon="3.555504">
        <ele>540.5</ele>
        <time>2018-05-10T08:39:57Z</time>
      </trkpt>
      <trkpt lat="43.766140" lon="3.555620">
        <ele>542.3</ele>
        <time>2018-05-10T08:40:08Z</time>
      </trkpt>
      <trkpt lat="43.766157" lon="3.555763">
        <ele>545.4</ele>
        <time>2018-05-10T08:40:27Z</time>
      </trkpt>
      <trkpt lat="43.766169" lon="3.555893">
        <ele>546.8</ele>
        <time>2018-05-10T08:40:36Z</time>
      </trkpt>
      <trkpt lat="43.766172" lon="3.556049">
        <ele>548.5</ele>
        <time>2018-05-10T08:40:45Z</time>
      </trkpt>
      <trkpt lat="43.766190" lon="3.556209">
        <ele>550.2</ele>
        <time>2018-05-10T08:40:54Z</time>
      </trkpt>
      <trkpt lat="43.766233" lon="3.556354">
        <ele>553.4</ele>
        <time>2018-05-10T08:41:04Z</time>
      </trkpt>
      <trkpt lat="43.766276" lon="3.556500">
        <ele>555.4</ele>
        <time>2018-05-10T08:41:14Z</time>
      </trkpt>
      <trkpt lat="43.766336" lon="3.556619">
        <ele>557.4</ele>
        <time>2018-05-10T08:41:25Z</time>
      </trkpt>
      <trkpt lat="43.766384" lon="3.556748">
        <ele>559.5</ele>
        <time>2018-05-10T08:41:35Z</time>
      </trkpt>
      <trkpt lat="43.766437" lon="3.556878">
        <ele>563.2</ele>
        <time>2018-05-10T08:41:46Z</time>
      </trkpt>
      <trkpt lat="43.766507" lon="3.556983">
        <ele>566.2</ele>
        <time>2018-05-10T08:41:56Z</time>
      </trkpt>
      <trkpt lat="43.766579" lon="3.557087">
        <ele>567.9</ele>
        <time>2018-05-10T08:42:08Z</time>
      </trkpt>
      <trkpt lat="43.766682" lon="3.557133">
        <ele>569.5</ele>
        <time>2018-05-10T08:42:37Z</time>
      </trkpt>
      <trkpt lat="43.766715" lon="3.557059">
        <ele>570.6</ele>
        <time>2018-05-10T08:42:53Z</time>
      </trkpt>
      <trkpt lat="43.766700" lon="3.556926">
        <ele>571.2</ele>
        <time>2018-05-10T08:43:01Z</time>
      </trkpt>
      <trkpt lat="43.766683" lon="3.556790">
        <ele>572.2</ele>
        <time>2018-05-10T08:43:09Z</time>
      </trkpt>
      <trkpt lat="43.766677" lon="3.556639">
        <ele>573.2</ele>
        <time>2018-05-10T08:43:17Z</time>
      </trkpt>
      <trkpt lat="43.766656" lon="3.556481">
        <ele>574.6</ele>
        <time>2018-05-10T08:43:28Z</time>
      </trkpt>
      <trkpt lat="43.766644" lon="3.556339">
        <ele>575.3</ele>
        <time>2018-05-10T08:43:36Z</time>
      </trkpt>
      <trkpt lat="43.766675" lon="3.556189">
        <ele>576.5</ele>
        <time>2018-05-10T08:43:45Z</time>
      </trkpt>
      <trkpt lat="43.766721" lon="3.556048">
        <ele>578.8</ele>
        <time>2018-05-10T08:43:56Z</time>
      </trkpt>
      <trkpt lat="43.766764" lon="3.555919">
        <ele>579.3</ele>
        <time>2018-05-10T08:44:06Z</time>
      </trkpt>
      <trkpt lat="43.766830" lon="3.555764">
        <ele>580.4</ele>
        <time>2018-05-10T08:44:17Z</time>
      </trkpt>
      <trkpt lat="43.766871" lon="3.555616">
        <ele>581.9</ele>
        <time>2018-05-10T08:44:27Z</time>
      </trkpt>
      <trkpt lat="43.766944" lon="3.555514">
        <ele>582.3</ele>
        <time>2018-05-10T08:44:37Z</time>
      </trkpt>
      <trkpt lat="43.767025" lon="3.555407">
        <ele>582.8</ele>
        <time>2018-05-10T08:44:45Z</time>
      </trkpt>
      <trkpt lat="43.767000" lon="3.555512">
        <ele>585.0</ele>
        <time>2018-05-10T08:46:28Z</time>
      </trkpt>
      <trkpt lat="43.766929" lon="3.555610">
        <ele>585.1</ele>
        <time>2018-05-10T08:46:36Z</time>
      </trkpt>
      <trkpt lat="43.766872" lon="3.555731">
        <ele>585.6</ele>
        <time>2018-05-10T08:46:45Z</time>
      </trkpt>
      <trkpt lat="43.766844" lon="3.555887">
        <ele>585.5</ele>
        <time>2018-05-10T08:46:55Z</time>
      </trkpt>
      <trkpt lat="43.766805" lon="3.556039">
        <ele>585.7</ele>
        <time>2018-05-10T08:47:06Z</time>
      </trkpt>
      <trkpt lat="43.766782" lon="3.556183">
        <ele>586.9</ele>
        <time>2018-05-10T08:47:16Z</time>
      </trkpt>
      <trkpt lat="43.766791" lon="3.556332">
        <ele>586.9</ele>
        <time>2018-05-10T08:47:25Z</time>
      </trkpt>
      <trkpt lat="43.766831" lon="3.556476">
        <ele>588.5</ele>
        <time>2018-05-10T08:47:36Z</time>
      </trkpt>
      <trkpt lat="43.766870" lon="3.556605">
        <ele>589.4</ele>
        <time>2018-05-10T08:47:46Z</time>
      </trkpt>
      <trkpt lat="43.766935" lon="3.556737">
        <ele>590.0</ele>
        <time>2018-05-10T08:47:57Z</time>
      </trkpt>
      <trkpt lat="43.767007" lon="3.556821">
        <ele>590.8</ele>
        <time>2018-05-10T08:48:08Z</time>
      </trkpt>
      <trkpt lat="43.767116" lon="3.556825">
        <ele>591.9</ele>
        <time>2018-05-10T08:48:17Z</time>
      </trkpt>
      <trkpt lat="43.767215" lon="3.556833">
        <ele>593.2</ele>
        <time>2018-05-10T08:48:28Z</time>
      </trkpt>
      <trkpt lat="43.767301" lon="3.556896">
        <ele>593.8</ele>
        <time>2018-05-10T08:48:36Z</time>
      </trkpt>
      <trkpt lat="43.767387" lon="3.556925">
        <ele>594.4</ele>
        <time>2018-05-10T08:48:47Z</time>
      </trkpt>
      <trkpt lat="43.767474" lon="3.556965">
        <ele>596.0</ele>
        <time>2018-05-10T08:48:57Z</time>
      </trkpt>
      <trkpt lat="43.767598" lon="3.557023">
        <ele>597.1</ele>
        <time>2018-05-10T08:49:08Z</time>
      </trkpt>
      <trkpt lat="43.767698" lon="3.557095">
        <ele>598.5</ele>
        <time>2018-05-10T08:49:20Z</time>
      </trkpt>
      <trkpt lat="43.767793" lon="3.557203">
        <ele>599.3</ele>
        <time>2018-05-10T08:49:31Z</time>
      </trkpt>
      <trkpt lat="43.767810" lon="3.557341">
        <ele>599.9</ele>
        <time>2018-05-10T08:50:03Z</time>
      </trkpt>
      <trkpt lat="43.767787" lon="3.557472">
        <ele>601.0</ele>
        <time>2018-05-10T08:50:19Z</time>
      </trkpt>
      <trkpt lat="43.767761" lon="3.557619">
        <ele>601.2</ele>
        <time>2018-05-10T08:50:29Z</time>
      </trkpt>
      <trkpt lat="43.767741" lon="3.557761">
        <ele>602.0</ele>
        <time>2018-05-10T08:50:38Z</time>
      </trkpt>
      <trkpt lat="43.767720" lon="3.557895">
        <ele>602.7</ele>
        <time>2018-05-10T08:50:47Z</time>
      </trkpt>
      <trkpt lat="43.767690" lon="3.558035">
        <ele>603.9</ele>
        <time>2018-05-10T08:50:56Z</time>
      </trkpt>
      <trkpt lat="43.767624" lon="3.558137">
        <ele>605.3</ele>
        <time>2018-05-10T08:51:06Z</time>
      </trkpt>
      <trkpt lat="43.767558" lon="3.558244">
        <ele>605.6</ele>
        <time>2018-05-10T08:51:15Z</time>
      </trkpt>
      <trkpt lat="43.767502" lon="3.558368">
        <ele>606.6</ele>
        <time>2018-05-10T08:51:25Z</time>
      </trkpt>
      <trkpt lat="43.767459" lon="3.558509">
        <ele>607.8</ele>
        <time>2018-05-10T08:51:37Z</time>
      </trkpt>
      <trkpt lat="43.767382" lon="3.558605">
        <ele>608.7</ele>
        <time>2018-05-10T08:51:46Z</time>
      </trkpt>
      <trkpt lat="43.767294" lon="3.558688">
        <ele>609.1</ele>
        <time>2018-05-10T08:51:55Z</time>
      </trkpt>
      <trkpt lat="43.767213" lon="3.558783">
        <ele>610.2</ele>
        <time>2018-05-10T08:52:06Z</time>
      </trkpt>
      <trkpt lat="43.767139" lon="3.558859">
        <ele>609.9</ele>
        <time>2018-05-10T08:52:18Z</time>
      </trkpt>
      <trkpt lat="43.767074" lon="3.558827">
        <ele>607.6</ele>
        <time>2018-05-10T08:52:31Z</time>
      </trkpt>
      <trkpt lat="43.767040" lon="3.558839">
        <ele>605.7</ele>
        <time>2018-05-10T09:37:01Z</time>
      </trkpt>
      <trkpt lat="43.767041" lon="3.558959">
        <ele>605.2</ele>
        <time>2018-05-10T09:37:13Z</time>
      </trkpt>
      <trkpt lat="43.767017" lon="3.559119">
        <ele>606.1</ele>
        <time>2018-05-10T09:37:22Z</time>
      </trkpt>
      <trkpt lat="43.766940" lon="3.559238">
        <ele>607.1</ele>
        <time>2018-05-10T09:37:35Z</time>
      </trkpt>
      <trkpt lat="43.766837" lon="3.559318">
        <ele>608.7</ele>
        <time>2018-05-10T09:37:46Z</time>
      </trkpt>
      <trkpt lat="43.766726" lon="3.559408">
        <ele>612.3</ele>
        <time>2018-05-10T09:38:00Z</time>
      </trkpt>
      <trkpt lat="43.766696" lon="3.559413">
        <ele>612.6</ele>
        <time>2018-05-10T09:38:41Z</time>
      </trkpt>
      <trkpt lat="43.766612" lon="3.559445">
        <ele>612.8</ele>
        <time>2018-05-10T09:39:04Z</time>
      </trkpt>
      <trkpt lat="43.766509" lon="3.559528">
        <ele>613.9</ele>
        <time>2018-05-10T09:39:18Z</time>
      </trkpt>
      <trkpt lat="43.766606" lon="3.559594">
        <ele>619.0</ele>
        <time>2018-05-10T10:31:06Z</time>
      </trkpt>
      <trkpt lat="43.766735" lon="3.559561">
        <ele>619.7</ele>
        <time>2018-05-10T10:31:19Z</time>
      </trkpt>
      <trkpt lat="43.766842" lon="3.559540">
        <ele>620.1</ele>
        <time>2018-05-10T10:31:30Z</time>
      </trkpt>
      <trkpt lat="43.766964" lon="3.559539">
        <ele>619.8</ele>
        <time>2018-05-10T10:31:41Z</time>
      </trkpt>
      <trkpt lat="43.767086" lon="3.559491">
        <ele>621.1</ele>
        <time>2018-05-10T10:31:53Z</time>
      </trkpt>
      <trkpt lat="43.767193" lon="3.559433">
        <ele>622.2</ele>
        <time>2018-05-10T10:32:05Z</time>
      </trkpt>
      <trkpt lat="43.767264" lon="3.559334">
        <ele>623.2</ele>
        <time>2018-05-10T10:32:16Z</time>
      </trkpt>
      <trkpt lat="43.767305" lon="3.559198">
        <ele>624.0</ele>
        <time>2018-05-10T10:32:29Z</time>
      </trkpt>
      <trkpt lat="43.767418" lon="3.559182">
        <ele>625.1</ele>
        <time>2018-05-10T10:34:18Z</time>
      </trkpt>
      <trkpt lat="43.767521" lon="3.559113">
        <ele>625.3</ele>
        <time>2018-05-10T10:34:32Z</time>
      </trkpt>
      <trkpt lat="43.767642" lon="3.559033">
        <ele>626.4</ele>
        <time>2018-05-10T10:34:43Z</time>
      </trkpt>
      <trkpt lat="43.767754" lon="3.558944">
        <ele>627.7</ele>
        <time>2018-05-10T10:34:54Z</time>
      </trkpt>
      <trkpt lat="43.767864" lon="3.558836">
        <ele>629.1</ele>
        <time>2018-05-10T10:35:05Z</time>
      </trkpt>
      <trkpt lat="43.767958" lon="3.558746">
        <ele>630.9</ele>
        <time>2018-05-10T10:35:16Z</time>
      </trkpt>
      <trkpt lat="43.768056" lon="3.558671">
        <ele>630.9</ele>
        <time>2018-05-10T10:35:24Z</time>
      </trkpt>
      <trkpt lat="43.768154" lon="3.558546">
        <ele>632.7</ele>
        <time>2018-05-10T10:35:35Z</time>
      </trkpt>
      <trkpt lat="43.768230" lon="3.558419">
        <ele>634.7</ele>
        <time>2018-05-10T10:35:46Z</time>
      </trkpt>
      <trkpt lat="43.768292" lon="3.558299">
        <ele>635.6</ele>
        <time>2018-05-10T10:35:56Z</time>
      </trkpt>
      <trkpt lat="43.768343" lon="3.558175">
        <ele>636.5</ele>
        <time>2018-05-10T10:36:07Z</time>
      </trkpt>
      <trkpt lat="43.768384" lon="3.558057">
        <ele>638.0</ele>
        <time>2018-05-10T10:36:19Z</time>
      </trkpt>
      <trkpt lat="43.768472" lon="3.558079">
        <ele>638.5</ele>
        <time>2018-05-10T10:36:30Z</time>
      </trkpt>
      <trkpt lat="43.768579" lon="3.558125">
        <ele>639.2</ele>
        <time>2018-05-10T10:36:39Z</time>
      </trkpt>
      <trkpt lat="43.768680" lon="3.558203">
        <ele>639.1</ele>
        <time>2018-05-10T10:36:52Z</time>
      </trkpt>
      <trkpt lat="43.768715" lon="3.558335">
        <ele>638.1</ele>
        <time>2018-05-10T10:37:13Z</time>
      </trkpt>
      <trkpt lat="43.768738" lon="3.558397">
        <ele>637.8</ele>
        <time>2018-05-10T10:38:05Z</time>
      </trkpt>
      <trkpt lat="43.768709" lon="3.558573">
        <ele>637.6</ele>
        <time>2018-05-10T10:38:18Z</time>
      </trkpt>
      <trkpt lat="43.768680" lon="3.558729">
        <ele>637.5</ele>
        <time>2018-05-10T10:38:31Z</time>
      </trkpt>
      <trkpt lat="43.768621" lon="3.558866">
        <ele>637.4</ele>
        <time>2018-05-10T10:38:39Z</time>
      </trkpt>
      <trkpt lat="43.768560" lon="3.558993">
        <ele>636.9</ele>
        <time>2018-05-10T10:38:48Z</time>
      </trkpt>
      <trkpt lat="43.768488" lon="3.559162">
        <ele>637.2</ele>
        <time>2018-05-10T10:38:59Z</time>
      </trkpt>
      <trkpt lat="43.768405" lon="3.559314">
        <ele>636.8</ele>
        <time>2018-05-10T10:39:09Z</time>
      </trkpt>
      <trkpt lat="43.768350" lon="3.559448">
        <ele>636.7</ele>
        <time>2018-05-10T10:39:20Z</time>
      </trkpt>
      <trkpt lat="43.768299" lon="3.559592">
        <ele>636.7</ele>
        <time>2018-05-10T10:39:31Z</time>
      </trkpt>
      <trkpt lat="43.768283" lon="3.559745">
        <ele>636.5</ele>
        <time>2018-05-10T10:39:42Z</time>
      </trkpt>
      <trkpt lat="43.768303" lon="3.559904">
        <ele>636.1</ele>
        <time>2018-05-10T10:39:51Z</time>
      </trkpt>
      <trkpt lat="43.768322" lon="3.560089">
        <ele>636.0</ele>
        <time>2018-05-10T10:40:03Z</time>
      </trkpt>
      <trkpt lat="43.768349" lon="3.560182">
        <ele>636.8</ele>
        <time>2018-05-10T10:40:58Z</time>
      </trkpt>
      <trkpt lat="43.768338" lon="3.560345">
        <ele>638.2</ele>
        <time>2018-05-10T10:41:09Z</time>
      </trkpt>
      <trkpt lat="43.768333" lon="3.560498">
        <ele>640.3</ele>
        <time>2018-05-10T10:41:19Z</time>
      </trkpt>
      <trkpt lat="43.768322" lon="3.560664">
        <ele>643.5</ele>
        <time>2018-05-10T10:41:37Z</time>
      </trkpt>
      <trkpt lat="43.768299" lon="3.560807">
        <ele>645.6</ele>
        <time>2018-05-10T10:41:49Z</time>
      </trkpt>
      <trkpt lat="43.768244" lon="3.560929">
        <ele>648.7</ele>
        <time>2018-05-10T10:41:59Z</time>
      </trkpt>
      <trkpt lat="43.768135" lon="3.560966">
        <ele>651.9</ele>
        <time>2018-05-10T10:42:10Z</time>
      </trkpt>
      <trkpt lat="43.768036" lon="3.561026">
        <ele>655.0</ele>
        <time>2018-05-10T10:42:22Z</time>
      </trkpt>
      <trkpt lat="43.767939" lon="3.561066">
        <ele>657.8</ele>
        <time>2018-05-10T10:42:32Z</time>
      </trkpt>
      <trkpt lat="43.767866" lon="3.561166">
        <ele>659.7</ele>
        <time>2018-05-10T10:42:45Z</time>
      </trkpt>
      <trkpt lat="43.767793" lon="3.561260">
        <ele>662.8</ele>
        <time>2018-05-10T10:42:58Z</time>
      </trkpt>
      <trkpt lat="43.767745" lon="3.561355">
        <ele>665.0</ele>
        <time>2018-05-10T10:43:09Z</time>
      </trkpt>
      <trkpt lat="43.767698" lon="3.561445">
        <ele>667.9</ele>
        <time>2018-05-10T10:45:06Z</time>
      </trkpt>
      <trkpt lat="43.767719" lon="3.561586">
        <ele>668.7</ele>
        <time>2018-05-10T10:45:20Z</time>
      </trkpt>
      <trkpt lat="43.767726" lon="3.561718">
        <ele>674.4</ele>
        <time>2018-05-10T10:45:40Z</time>
      </trkpt>
      <trkpt lat="43.767745" lon="3.561870">
        <ele>676.8</ele>
        <time>2018-05-10T10:45:52Z</time>
      </trkpt>
      <trkpt lat="43.767725" lon="3.562019">
        <ele>680.6</ele>
        <time>2018-05-10T10:46:05Z</time>
      </trkpt>
      <trkpt lat="43.767689" lon="3.562151">
        <ele>684.5</ele>
        <time>2018-05-10T10:46:20Z</time>
      </trkpt>
      <trkpt lat="43.767658" lon="3.562274">
        <ele>688.8</ele>
        <time>2018-05-10T10:46:35Z</time>
      </trkpt>
      <trkpt lat="43.767683" lon="3.562409">
        <ele>693.7</ele>
        <time>2018-05-10T10:46:53Z</time>
      </trkpt>
      <trkpt lat="43.767698" lon="3.562536">
        <ele>695.3</ele>
        <time>2018-05-10T10:47:07Z</time>
      </trkpt>
      <trkpt lat="43.767660" lon="3.562634">
        <ele>697.3</ele>
        <time>2018-05-10T10:47:22Z</time>
      </trkpt>
      <trkpt lat="43.767711" lon="3.562717">
        <ele>699.0</ele>
        <time>2018-05-10T10:48:24Z</time>
      </trkpt>
      <trkpt lat="43.767745" lon="3.562683">
        <ele>698.4</ele>
        <time>2018-05-10T10:49:14Z</time>
      </trkpt>
      <trkpt lat="43.767778" lon="3.562688">
        <ele>697.9</ele>
        <time>2018-05-10T10:50:15Z</time>
      </trkpt>
      <trkpt lat="43.767768" lon="3.562699">
        <ele>700.1</ele>
        <time>2018-05-10T10:51:18Z</time>
      </trkpt>
      <trkpt lat="43.767842" lon="3.562769">
        <ele>701.7</ele>
        <time>2018-05-10T10:51:32Z</time>
      </trkpt>
      <trkpt lat="43.767921" lon="3.562805">
        <ele>704.5</ele>
        <time>2018-05-10T10:51:48Z</time>
      </trkpt>
      <trkpt lat="43.768011" lon="3.562783">
        <ele>705.7</ele>
        <time>2018-05-10T10:52:05Z</time>
      </trkpt>
      <trkpt lat="43.767994" lon="3.562740">
        <ele>708.3</ele>
        <time>2018-05-10T11:08:55Z</time>
      </trkpt>
      <trkpt lat="43.767947" lon="3.562701">
        <ele>706.0</ele>
        <time>2018-05-10T11:09:47Z</time>
      </trkpt>
      <trkpt lat="43.767955" lon="3.562579">
        <ele>701.1</ele>
        <time>2018-05-10T11:10:22Z</time>
      </trkpt>
      <trkpt lat="43.767963" lon="3.562446">
        <ele>697.4</ele>
        <time>2018-05-10T11:10:50Z</time>
      </trkpt>
      <trkpt lat="43.768063" lon="3.562368">
        <ele>692.2</ele>
        <time>2018-05-10T11:11:13Z</time>
      </trkpt>
      <trkpt lat="43.768126" lon="3.562377">
        <ele>692.6</ele>
        <time>2018-05-10T11:11:43Z</time>
      </trkpt>
      <trkpt lat="43.768183" lon="3.562330">
        <ele>686.0</ele>
        <time>2018-05-10T11:12:15Z</time>
      </trkpt>
      <trkpt lat="43.768281" lon="3.562313">
        <ele>683.1</ele>
        <time>2018-05-10T11:12:34Z</time>
      </trkpt>
      <trkpt lat="43.768331" lon="3.562247">
        <ele>679.9</ele>
        <time>2018-05-10T11:13:03Z</time>
      </trkpt>
      <trkpt lat="43.768412" lon="3.562159">
        <ele>677.0</ele>
        <time>2018-05-10T11:13:22Z</time>
      </trkpt>
      <trkpt lat="43.768503" lon="3.562107">
        <ele>671.4</ele>
        <time>2018-05-10T11:13:47Z</time>
      </trkpt>
      <trkpt lat="43.768584" lon="3.561985">
        <ele>667.2</ele>
        <time>2018-05-10T11:14:08Z</time>
      </trkpt>
      <trkpt lat="43.768632" lon="3.561863">
        <ele>661.9</ele>
        <time>2018-05-10T11:14:30Z</time>
      </trkpt>
      <trkpt lat="43.768610" lon="3.561735">
        <ele>660.8</ele>
        <time>2018-05-10T11:14:52Z</time>
      </trkpt>
      <trkpt lat="43.768637" lon="3.561589">
        <ele>654.7</ele>
        <time>2018-05-10T11:15:15Z</time>
      </trkpt>
      <trkpt lat="43.768712" lon="3.561469">
        <ele>650.2</ele>
        <time>2018-05-10T11:15:36Z</time>
      </trkpt>
      <trkpt lat="43.768791" lon="3.561497">
        <ele>647.6</ele>
        <time>2018-05-10T11:16:03Z</time>
      </trkpt>
      <trkpt lat="43.768898" lon="3.561612">
        <ele>647.2</ele>
        <time>2018-05-10T11:16:25Z</time>
      </trkpt>
      <trkpt lat="43.768994" lon="3.561620">
        <ele>646.5</ele>
        <time>2018-05-10T11:16:40Z</time>
      </trkpt>
      <trkpt lat="43.769090" lon="3.561633">
        <ele>641.6</ele>
        <time>2018-05-10T11:17:00Z</time>
      </trkpt>
      <trkpt lat="43.769158" lon="3.561705">
        <ele>637.5</ele>
        <time>2018-05-10T11:17:17Z</time>
      </trkpt>
      <trkpt lat="43.769235" lon="3.561752">
        <ele>635.1</ele>
        <time>2018-05-10T11:18:00Z</time>
      </trkpt>
      <trkpt lat="43.769189" lon="3.561880">
        <ele>634.0</ele>
        <time>2018-05-10T11:18:49Z</time>
      </trkpt>
      <trkpt lat="43.769223" lon="3.562085">
        <ele>634.1</ele>
        <time>2018-05-10T11:19:04Z</time>
      </trkpt>
      <trkpt lat="43.769200" lon="3.562253">
        <ele>632.9</ele>
        <time>2018-05-10T11:19:15Z</time>
      </trkpt>
      <trkpt lat="43.769189" lon="3.562415">
        <ele>633.3</ele>
        <time>2018-05-10T11:19:26Z</time>
      </trkpt>
      <trkpt lat="43.769179" lon="3.562579">
        <ele>633.1</ele>
        <time>2018-05-10T11:19:36Z</time>
      </trkpt>
      <trkpt lat="43.769218" lon="3.562779">
        <ele>631.8</ele>
        <time>2018-05-10T11:19:49Z</time>
      </trkpt>
      <trkpt lat="43.769306" lon="3.562940">
        <ele>630.7</ele>
        <time>2018-05-10T11:20:00Z</time>
      </trkpt>
      <trkpt lat="43.769380" lon="3.563090">
        <ele>630.5</ele>
        <time>2018-05-10T11:20:13Z</time>
      </trkpt>
      <trkpt lat="43.769455" lon="3.563209">
        <ele>631.2</ele>
        <time>2018-05-10T11:20:23Z</time>
      </trkpt>
      <trkpt lat="43.769550" lon="3.563329">
        <ele>630.8</ele>
        <time>2018-05-10T11:20:35Z</time>
      </trkpt>
      <trkpt lat="43.769619" lon="3.563452">
        <ele>631.5</ele>
        <time>2018-05-10T11:20:45Z</time>
      </trkpt>
      <trkpt lat="43.769699" lon="3.563553">
        <ele>631.6</ele>
        <time>2018-05-10T11:20:54Z</time>
      </trkpt>
      <trkpt lat="43.769784" lon="3.563627">
        <ele>632.4</ele>
        <time>2018-05-10T11:21:03Z</time>
      </trkpt>
      <trkpt lat="43.769896" lon="3.563703">
        <ele>631.8</ele>
        <time>2018-05-10T11:21:17Z</time>
      </trkpt>
      <trkpt lat="43.769861" lon="3.563791">
        <ele>630.5</ele>
        <time>2018-05-10T11:21:41Z</time>
      </trkpt>
      <trkpt lat="43.769849" lon="3.563987">
        <ele>629.6</ele>
        <time>2018-05-10T11:21:56Z</time>
      </trkpt>
      <trkpt lat="43.769930" lon="3.564165">
        <ele>628.7</ele>
        <time>2018-05-10T11:22:14Z</time>
      </trkpt>
      <trkpt lat="43.769981" lon="3.564315">
        <ele>627.3</ele>
        <time>2018-05-10T11:22:29Z</time>
      </trkpt>
      <trkpt lat="43.770024" lon="3.564518">
        <ele>626.1</ele>
        <time>2018-05-10T11:22:43Z</time>
      </trkpt>
      <trkpt lat="43.770083" lon="3.564699">
        <ele>623.8</ele>
        <time>2018-05-10T11:22:57Z</time>
      </trkpt>
      <trkpt lat="43.770147" lon="3.564875">
        <ele>623.3</ele>
        <time>2018-05-10T11:23:10Z</time>
      </trkpt>
      <trkpt lat="43.770213" lon="3.565099">
        <ele>619.6</ele>
        <time>2018-05-10T11:23:24Z</time>
      </trkpt>
      <trkpt lat="43.770286" lon="3.565256">
        <ele>618.7</ele>
        <time>2018-05-10T11:23:40Z</time>
      </trkpt>
      <trkpt lat="43.770369" lon="3.565390">
        <ele>617.1</ele>
        <time>2018-05-10T11:23:53Z</time>
      </trkpt>
      <trkpt lat="43.770431" lon="3.565533">
        <ele>616.5</ele>
        <time>2018-05-10T11:24:05Z</time>
      </trkpt>
      <trkpt lat="43.770479" lon="3.565668">
        <ele>612.7</ele>
        <time>2018-05-10T11:24:36Z</time>
      </trkpt>
      <trkpt lat="43.770520" lon="3.565800">
        <ele>610.9</ele>
        <time>2018-05-10T11:25:59Z</time>
      </trkpt>
      <trkpt lat="43.770581" lon="3.565971">
        <ele>611.4</ele>
        <time>2018-05-10T11:26:14Z</time>
      </trkpt>
      <trkpt lat="43.770634" lon="3.566144">
        <ele>607.3</ele>
        <time>2018-05-10T11:26:32Z</time>
      </trkpt>
      <trkpt lat="43.770716" lon="3.566353">
        <ele>606.3</ele>
        <time>2018-05-10T11:26:50Z</time>
      </trkpt>
      <trkpt lat="43.770782" lon="3.566549">
        <ele>604.2</ele>
        <time>2018-05-10T11:27:10Z</time>
      </trkpt>
      <trkpt lat="43.770822" lon="3.566693">
        <ele>602.3</ele>
        <time>2018-05-10T11:27:28Z</time>
      </trkpt>
      <trkpt lat="43.770878" lon="3.566886">
        <ele>600.2</ele>
        <time>2018-05-10T11:27:45Z</time>
      </trkpt>
      <trkpt lat="43.770956" lon="3.567043">
        <ele>597.7</ele>
        <time>2018-05-10T11:28:00Z</time>
      </trkpt>
      <trkpt lat="43.771015" lon="3.567191">
        <ele>596.2</ele>
        <time>2018-05-10T11:28:13Z</time>
      </trkpt>
      <trkpt lat="43.771073" lon="3.567310">
        <ele>594.3</ele>
        <time>2018-05-10T11:28:28Z</time>
      </trkpt>
      <trkpt lat="43.771167" lon="3.567472">
        <ele>590.6</ele>
        <time>2018-05-10T11:28:44Z</time>
      </trkpt>
      <trkpt lat="43.771271" lon="3.567611">
        <ele>589.1</ele>
        <time>2018-05-10T11:29:02Z</time>
      </trkpt>
      <trkpt lat="43.771359" lon="3.567782">
        <ele>588.3</ele>
        <time>2018-05-10T11:29:17Z</time>
      </trkpt>
      <trkpt lat="43.771505" lon="3.567829">
        <ele>585.7</ele>
        <time>2018-05-10T11:29:35Z</time>
      </trkpt>
      <trkpt lat="43.771658" lon="3.567722">
        <ele>583.3</ele>
        <time>2018-05-10T11:29:52Z</time>
      </trkpt>
      <trkpt lat="43.771771" lon="3.567650">
        <ele>580.6</ele>
        <time>2018-05-10T11:30:12Z</time>
      </trkpt>
      <trkpt lat="43.771884" lon="3.567663">
        <ele>578.6</ele>
        <time>2018-05-10T11:30:27Z</time>
      </trkpt>
      <trkpt lat="43.771966" lon="3.567726">
        <ele>577.3</ele>
        <time>2018-05-10T11:30:46Z</time>
      </trkpt>
      <trkpt lat="43.772080" lon="3.567749">
        <ele>576.0</ele>
        <time>2018-05-10T11:31:00Z</time>
      </trkpt>
      <trkpt lat="43.772209" lon="3.567855">
        <ele>572.4</ele>
        <time>2018-05-10T11:31:16Z</time>
      </trkpt>
      <trkpt lat="43.772323" lon="3.567970">
        <ele>571.5</ele>
        <time>2018-05-10T11:31:32Z</time>
      </trkpt>
      <trkpt lat="43.772418" lon="3.568064">
        <ele>569.7</ele>
        <time>2018-05-10T11:31:48Z</time>
      </trkpt>
      <trkpt lat="43.772512" lon="3.568153">
        <ele>566.2</ele>
        <time>2018-05-10T11:32:03Z</time>
      </trkpt>
      <trkpt lat="43.772572" lon="3.568242">
        <ele>564.6</ele>
        <time>2018-05-10T11:32:36Z</time>
      </trkpt>
      <trkpt lat="43.772610" lon="3.568347">
        <ele>564.0</ele>
        <time>2018-05-10T11:33:03Z</time>
      </trkpt>
      <trkpt lat="43.772677" lon="3.568483">
        <ele>562.7</ele>
        <time>2018-05-10T11:33:20Z</time>
      </trkpt>
      <trkpt lat="43.772740" lon="3.568610">
        <ele>561.9</ele>
        <time>2018-05-10T11:33:35Z</time>
      </trkpt>
      <trkpt lat="43.772836" lon="3.568742">
        <ele>560.6</ele>
        <time>2018-05-10T11:33:50Z</time>
      </trkpt>
      <trkpt lat="43.772892" lon="3.568899">
        <ele>557.0</ele>
        <time>2018-05-10T11:34:06Z</time>
      </trkpt>
      <trkpt lat="43.772990" lon="3.569099">
        <ele>555.0</ele>
        <time>2018-05-10T11:34:25Z</time>
      </trkpt>
      <trkpt lat="43.773083" lon="3.569308">
        <ele>554.3</ele>
        <time>2018-05-10T11:34:46Z</time>
      </trkpt>
      <trkpt lat="43.773142" lon="3.569480">
        <ele>551.6</ele>
        <time>2018-05-10T11:35:04Z</time>
      </trkpt>
      <trkpt lat="43.773201" lon="3.569703">
        <ele>549.2</ele>
        <time>2018-05-10T11:35:23Z</time>
      </trkpt>
      <trkpt lat="43.773252" lon="3.569907">
        <ele>546.9</ele>
        <time>2018-05-10T11:35:43Z</time>
      </trkpt>
      <trkpt lat="43.773309" lon="3.570093">
        <ele>545.9</ele>
        <time>2018-05-10T11:36:01Z</time>
      </trkpt>
      <trkpt lat="43.773365" lon="3.570318">
        <ele>541.5</ele>
        <time>2018-05-10T11:36:20Z</time>
      </trkpt>
      <trkpt lat="43.773434" lon="3.570477">
        <ele>538.7</ele>
        <time>2018-05-10T11:36:39Z</time>
      </trkpt>
      <trkpt lat="43.773564" lon="3.570591">
        <ele>538.5</ele>
        <time>2018-05-10T11:36:55Z</time>
      </trkpt>
      <trkpt lat="43.773707" lon="3.570698">
        <ele>536.2</ele>
        <time>2018-05-10T11:37:13Z</time>
      </trkpt>
      <trkpt lat="43.773837" lon="3.570833">
        <ele>534.9</ele>
        <time>2018-05-10T11:37:29Z</time>
      </trkpt>
      <trkpt lat="43.773979" lon="3.570894">
        <ele>533.1</ele>
        <time>2018-05-10T11:37:44Z</time>
      </trkpt>
      <trkpt lat="43.774136" lon="3.570930">
        <ele>531.6</ele>
        <time>2018-05-10T11:38:01Z</time>
      </trkpt>
      <trkpt lat="43.774257" lon="3.571039">
        <ele>527.8</ele>
        <time>2018-05-10T11:38:17Z</time>
      </trkpt>
      <trkpt lat="43.774381" lon="3.571123">
        <ele>526.8</ele>
        <time>2018-05-10T11:38:33Z</time>
      </trkpt>
      <trkpt lat="43.774472" lon="3.571260">
        <ele>523.8</ele>
        <time>2018-05-10T11:38:49Z</time>
      </trkpt>
      <trkpt lat="43.774562" lon="3.571307">
        <ele>525.1</ele>
        <time>2018-05-10T11:39:10Z</time>
      </trkpt>
      <trkpt lat="43.774616" lon="3.571399">
        <ele>524.9</ele>
        <time>2018-05-10T11:39:55Z</time>
      </trkpt>
      <trkpt lat="43.774704" lon="3.571515">
        <ele>522.0</ele>
        <time>2018-05-10T11:40:14Z</time>
      </trkpt>
      <trkpt lat="43.774750" lon="3.571668">
        <ele>522.5</ele>
        <time>2018-05-10T11:40:30Z</time>
      </trkpt>
      <trkpt lat="43.774756" lon="3.571860">
        <ele>523.5</ele>
        <time>2018-05-10T11:40:44Z</time>
      </trkpt>
      <trkpt lat="43.774803" lon="3.571997">
        <ele>525.3</ele>
        <time>2018-05-10T11:41:09Z</time>
      </trkpt>
      <trkpt lat="43.774802" lon="3.572177">
        <ele>525.4</ele>
        <time>2018-05-10T11:41:22Z</time>
      </trkpt>
      <trkpt lat="43.774805" lon="3.572317">
        <ele>526.0</ele>
        <time>2018-05-10T11:42:01Z</time>
      </trkpt>
      <trkpt lat="43.774826" lon="3.572410">
        <ele>530.5</ele>
        <time>2018-05-10T11:42:35Z</time>
      </trkpt>
      <trkpt lat="43.774775" lon="3.572552">
        <ele>531.6</ele>
        <time>2018-05-10T11:42:47Z</time>
      </trkpt>
      <trkpt lat="43.774685" lon="3.572679">
        <ele>531.2</ele>
        <time>2018-05-10T11:43:01Z</time>
      </trkpt>
      <trkpt lat="43.774572" lon="3.572728">
        <ele>533.9</ele>
        <time>2018-05-10T11:43:17Z</time>
      </trkpt>
      <trkpt lat="43.774415" lon="3.572785">
        <ele>534.7</ele>
        <time>2018-05-10T11:43:33Z</time>
      </trkpt>
      <trkpt lat="43.774277" lon="3.572820">
        <ele>535.8</ele>
        <time>2018-05-10T11:43:46Z</time>
      </trkpt>
      <trkpt lat="43.774141" lon="3.572837">
        <ele>535.0</ele>
        <time>2018-05-10T11:44:00Z</time>
      </trkpt>
      <trkpt lat="43.774016" lon="3.572807">
        <ele>534.3</ele>
        <time>2018-05-10T11:44:14Z</time>
      </trkpt>
      <trkpt lat="43.773859" lon="3.572766">
        <ele>533.6</ele>
        <time>2018-05-10T11:44:28Z</time>
      </trkpt>
      <trkpt lat="43.773746" lon="3.572718">
        <ele>533.2</ele>
        <time>2018-05-10T11:44:41Z</time>
      </trkpt>
      <trkpt lat="43.773609" lon="3.572730">
        <ele>532.6</ele>
        <time>2018-05-10T11:44:55Z</time>
      </trkpt>
      <trkpt lat="43.773491" lon="3.572713">
        <ele>531.5</ele>
        <time>2018-05-10T11:45:15Z</time>
      </trkpt>
      <trkpt lat="43.773345" lon="3.572692">
        <ele>529.3</ele>
        <time>2018-05-10T11:45:31Z</time>
      </trkpt>
      <trkpt lat="43.773207" lon="3.572731">
        <ele>529.2</ele>
        <time>2018-05-10T11:45:48Z</time>
      </trkpt>
      <trkpt lat="43.773069" lon="3.572735">
        <ele>527.4</ele>
        <time>2018-05-10T11:46:03Z</time>
      </trkpt>
      <trkpt lat="43.772945" lon="3.572708">
        <ele>526.0</ele>
        <time>2018-05-10T11:46:20Z</time>
      </trkpt>
      <trkpt lat="43.772835" lon="3.572691">
        <ele>524.7</ele>
        <time>2018-05-10T11:46:34Z</time>
      </trkpt>
      <trkpt lat="43.772764" lon="3.572597">
        <ele>523.3</ele>
        <time>2018-05-10T11:46:50Z</time>
      </trkpt>
      <trkpt lat="43.772784" lon="3.572456">
        <ele>521.7</ele>
        <time>2018-05-10T11:47:08Z</time>
      </trkpt>
      <trkpt lat="43.772800" lon="3.572306">
        <ele>520.5</ele>
        <time>2018-05-10T11:47:28Z</time>
      </trkpt>
      <trkpt lat="43.772739" lon="3.572217">
        <ele>519.2</ele>
        <time>2018-05-10T11:48:25Z</time>
      </trkpt>
      <trkpt lat="43.772645" lon="3.572113">
        <ele>516.5</ele>
        <time>2018-05-10T11:48:45Z</time>
      </trkpt>
      <trkpt lat="43.772532" lon="3.572047">
        <ele>513.2</ele>
        <time>2018-05-10T11:49:03Z</time>
      </trkpt>
      <trkpt lat="43.772398" lon="3.572035">
        <ele>509.5</ele>
        <time>2018-05-10T11:49:23Z</time>
      </trkpt>
      <trkpt lat="43.772278" lon="3.572002">
        <ele>508.9</ele>
        <time>2018-05-10T11:49:36Z</time>
      </trkpt>
      <trkpt lat="43.772139" lon="3.571977">
        <ele>509.0</ele>
        <time>2018-05-10T11:49:47Z</time>
      </trkpt>
      <trkpt lat="43.772017" lon="3.571958">
        <ele>508.0</ele>
        <time>2018-05-10T11:49:56Z</time>
      </trkpt>
      <trkpt lat="43.771890" lon="3.571967">
        <ele>509.0</ele>
        <time>2018-05-10T11:50:07Z</time>
      </trkpt>
      <trkpt lat="43.771764" lon="3.571962">
        <ele>509.2</ele>
        <time>2018-05-10T11:50:17Z</time>
      </trkpt>
      <trkpt lat="43.771639" lon="3.571951">
        <ele>510.5</ele>
        <time>2018-05-10T11:50:28Z</time>
      </trkpt>
      <trkpt lat="43.771467" lon="3.571956">
        <ele>509.7</ele>
        <time>2018-05-10T11:50:38Z</time>
      </trkpt>
      <trkpt lat="43.771340" lon="3.572010">
        <ele>509.2</ele>
        <time>2018-05-10T11:50:52Z</time>
      </trkpt>
      <trkpt lat="43.771225" lon="3.572021">
        <ele>508.3</ele>
        <time>2018-05-10T11:51:03Z</time>
      </trkpt>
      <trkpt lat="43.771087" lon="3.572068">
        <ele>508.7</ele>
        <time>2018-05-10T11:51:15Z</time>
      </trkpt>
      <trkpt lat="43.770927" lon="3.572077">
        <ele>508.2</ele>
        <time>2018-05-10T11:51:25Z</time>
      </trkpt>
      <trkpt lat="43.770789" lon="3.572117">
        <ele>506.5</ele>
        <time>2018-05-10T11:51:39Z</time>
      </trkpt>
      <trkpt lat="43.770673" lon="3.572107">
        <ele>505.9</ele>
        <time>2018-05-10T11:51:49Z</time>
      </trkpt>
      <trkpt lat="43.770551" lon="3.572143">
        <ele>505.2</ele>
        <time>2018-05-10T11:52:01Z</time>
      </trkpt>
      <trkpt lat="43.770442" lon="3.572183">
        <ele>501.8</ele>
        <time>2018-05-10T11:52:17Z</time>
      </trkpt>
      <trkpt lat="43.770345" lon="3.572159">
        <ele>501.7</ele>
        <time>2018-05-10T11:52:28Z</time>
      </trkpt>
      <trkpt lat="43.770216" lon="3.572138">
        <ele>500.6</ele>
        <time>2018-05-10T11:52:38Z</time>
      </trkpt>
      <trkpt lat="43.770096" lon="3.572109">
        <ele>499.1</ele>
        <time>2018-05-10T11:52:48Z</time>
      </trkpt>
      <trkpt lat="43.770001" lon="3.572055">
        <ele>499.0</ele>
        <time>2018-05-10T11:52:56Z</time>
      </trkpt>
      <trkpt lat="43.769874" lon="3.572028">
        <ele>499.6</ele>
        <time>2018-05-10T11:53:05Z</time>
      </trkpt>
      <trkpt lat="43.769783" lon="3.571939">
        <ele>499.5</ele>
        <time>2018-05-10T11:53:16Z</time>
      </trkpt>
      <trkpt lat="43.769694" lon="3.571878">
        <ele>499.8</ele>
        <time>2018-05-10T11:53:23Z</time>
      </trkpt>
      <trkpt lat="43.769621" lon="3.571771">
        <ele>500.4</ele>
        <time>2018-05-10T11:53:31Z</time>
      </trkpt>
      <trkpt lat="43.769506" lon="3.571679">
        <ele>500.7</ele>
        <time>2018-05-10T11:53:39Z</time>
      </trkpt>
      <trkpt lat="43.769402" lon="3.571605">
        <ele>501.2</ele>
        <time>2018-05-10T11:53:48Z</time>
      </trkpt>
      <trkpt lat="43.769307" lon="3.571523">
        <ele>502.5</ele>
        <time>2018-05-10T11:53:57Z</time>
      </trkpt>
      <trkpt lat="43.769234" lon="3.571393">
        <ele>501.9</ele>
        <time>2018-05-10T11:54:06Z</time>
      </trkpt>
      <trkpt lat="43.769148" lon="3.571289">
        <ele>501.4</ele>
        <time>2018-05-10T11:54:14Z</time>
      </trkpt>
      <trkpt lat="43.769070" lon="3.571184">
        <ele>501.8</ele>
        <time>2018-05-10T11:54:23Z</time>
      </trkpt>
      <trkpt lat="43.768983" lon="3.571086">
        <ele>501.7</ele>
        <time>2018-05-10T11:54:33Z</time>
      </trkpt>
      <trkpt lat="43.768896" lon="3.570964">
        <ele>500.5</ele>
        <time>2018-05-10T11:54:42Z</time>
      </trkpt>
      <trkpt lat="43.768798" lon="3.570893">
        <ele>499.0</ele>
        <time>2018-05-10T11:54:52Z</time>
      </trkpt>
      <trkpt lat="43.768734" lon="3.570758">
        <ele>498.1</ele>
        <time>2018-05-10T11:55:01Z</time>
      </trkpt>
      <trkpt lat="43.768603" lon="3.570667">
        <ele>497.8</ele>
        <time>2018-05-10T11:55:10Z</time>
      </trkpt>
      <trkpt lat="43.768482" lon="3.570553">
        <ele>498.3</ele>
        <time>2018-05-10T11:55:21Z</time>
      </trkpt>
      <trkpt lat="43.768377" lon="3.570451">
        <ele>499.4</ele>
        <time>2018-05-10T11:55:33Z</time>
      </trkpt>
      <trkpt lat="43.768279" lon="3.570438">
        <ele>500.6</ele>
        <time>2018-05-10T11:55:44Z</time>
      </trkpt>
      <trkpt lat="43.768168" lon="3.570389">
        <ele>501.0</ele>
        <time>2018-05-10T11:55:53Z</time>
      </trkpt>
      <trkpt lat="43.768054" lon="3.570377">
        <ele>500.8</ele>
        <time>2018-05-10T11:56:03Z</time>
      </trkpt>
      <trkpt lat="43.767943" lon="3.570338">
        <ele>499.7</ele>
        <time>2018-05-10T11:56:12Z</time>
      </trkpt>
      <trkpt lat="43.767852" lon="3.570269">
        <ele>498.5</ele>
        <time>2018-05-10T11:56:22Z</time>
      </trkpt>
      <trkpt lat="43.767747" lon="3.570183">
        <ele>498.3</ele>
        <time>2018-05-10T11:56:34Z</time>
      </trkpt>
      <trkpt lat="43.767675" lon="3.570098">
        <ele>496.0</ele>
        <time>2018-05-10T11:57:14Z</time>
      </trkpt>
      <trkpt lat="43.767572" lon="3.570050">
        <ele>495.5</ele>
        <time>2018-05-10T11:57:25Z</time>
      </trkpt>
      <trkpt lat="43.767492" lon="3.569944">
        <ele>494.5</ele>
        <time>2018-05-10T11:57:38Z</time>
      </trkpt>
      <trkpt lat="43.767404" lon="3.569844">
        <ele>493.5</ele>
        <time>2018-05-10T11:57:52Z</time>
      </trkpt>
      <trkpt lat="43.767334" lon="3.569736">
        <ele>491.7</ele>
        <time>2018-05-10T11:58:05Z</time>
      </trkpt>
      <trkpt lat="43.767246" lon="3.569709">
        <ele>488.7</ele>
        <time>2018-05-10T11:58:22Z</time>
      </trkpt>
      <trkpt lat="43.767177" lon="3.569843">
        <ele>487.3</ele>
        <time>2018-05-10T11:58:39Z</time>
      </trkpt>
      <trkpt lat="43.767166" lon="3.569981">
        <ele>485.4</ele>
        <time>2018-05-10T11:58:56Z</time>
      </trkpt>
      <trkpt lat="43.767052" lon="3.570003">
        <ele>485.3</ele>
        <time>2018-05-10T12:01:39Z</time>
      </trkpt>
      <trkpt lat="43.767130" lon="3.570123">
        <ele>482.9</ele>
        <time>2018-05-10T12:03:06Z</time>
      </trkpt>
      <trkpt lat="43.767128" lon="3.570268">
        <ele>480.2</ele>
        <time>2018-05-10T12:03:24Z</time>
      </trkpt>
      <trkpt lat="43.767154" lon="3.570309">
        <ele>482.3</ele>
        <time>2018-05-10T12:06:08Z</time>
      </trkpt>
      <trkpt lat="43.767143" lon="3.570333">
        <ele>481.2</ele>
        <time>2018-05-10T12:10:10Z</time>
      </trkpt>
      <trkpt lat="43.767202" lon="3.570425">
        <ele>481.0</ele>
        <time>2018-05-10T12:12:05Z</time>
      </trkpt>
      <trkpt lat="43.767286" lon="3.570558">
        <ele>479.6</ele>
        <time>2018-05-10T12:12:22Z</time>
      </trkpt>
      <trkpt lat="43.767241" lon="3.570610">
        <ele>476.7</ele>
        <time>2018-05-10T12:12:39Z</time>
      </trkpt>
      <trkpt lat="43.767138" lon="3.570594">
        <ele>474.9</ele>
        <time>2018-05-10T12:12:55Z</time>
      </trkpt>
      <trkpt lat="43.767041" lon="3.570556">
        <ele>474.9</ele>
        <time>2018-05-10T12:13:10Z</time>
      </trkpt>
      <trkpt lat="43.766942" lon="3.570454">
        <ele>474.2</ele>
        <time>2018-05-10T12:13:23Z</time>
      </trkpt>
      <trkpt lat="43.766889" lon="3.570311">
        <ele>473.3</ele>
        <time>2018-05-10T12:13:36Z</time>
      </trkpt>
      <trkpt lat="43.766828" lon="3.570185">
        <ele>473.3</ele>
        <time>2018-05-10T12:13:49Z</time>
      </trkpt>
      <trkpt lat="43.766817" lon="3.570030">
        <ele>470.0</ele>
        <time>2018-05-10T12:14:02Z</time>
      </trkpt>
      <trkpt lat="43.766792" lon="3.569878">
        <ele>463.9</ele>
        <time>2018-05-10T12:14:19Z</time>
      </trkpt>
      <trkpt lat="43.766711" lon="3.569821">
        <ele>463.8</ele>
        <time>2018-05-10T12:14:42Z</time>
      </trkpt>
      <trkpt lat="43.766606" lon="3.569748">
        <ele>462.1</ele>
        <time>2018-05-10T12:15:00Z</time>
      </trkpt>
      <trkpt lat="43.766506" lon="3.569765">
        <ele>457.9</ele>
        <time>2018-05-10T12:15:19Z</time>
      </trkpt>
      <trkpt lat="43.766584" lon="3.569880">
        <ele>453.8</ele>
        <time>2018-05-10T12:15:39Z</time>
      </trkpt>
      <trkpt lat="43.766474" lon="3.569877">
        <ele>451.7</ele>
        <time>2018-05-10T12:16:00Z</time>
      </trkpt>
      <trkpt lat="43.766489" lon="3.570025">
        <ele>448.9</ele>
        <time>2018-05-10T12:16:20Z</time>
      </trkpt>
      <trkpt lat="43.766399" lon="3.570021">
        <ele>446.7</ele>
        <time>2018-05-10T12:16:40Z</time>
      </trkpt>
      <trkpt lat="43.766302" lon="3.570044">
        <ele>443.5</ele>
        <time>2018-05-10T12:17:01Z</time>
      </trkpt>
      <trkpt lat="43.766274" lon="3.570119">
        <ele>441.6</ele>
        <time>2018-05-10T12:17:22Z</time>
      </trkpt>
      <trkpt lat="43.766226" lon="3.570178">
        <ele>438.9</ele>
        <time>2018-05-10T12:17:38Z</time>
      </trkpt>
      <trkpt lat="43.766160" lon="3.570216">
        <ele>436.2</ele>
        <time>2018-05-10T12:17:57Z</time>
      </trkpt>
      <trkpt lat="43.766086" lon="3.570251">
        <ele>436.0</ele>
        <time>2018-05-10T12:18:14Z</time>
      </trkpt>
      <trkpt lat="43.765946" lon="3.570302">
        <ele>433.1</ele>
        <time>2018-05-10T12:18:29Z</time>
      </trkpt>
      <trkpt lat="43.765824" lon="3.570366">
        <ele>430.9</ele>
        <time>2018-05-10T12:18:44Z</time>
      </trkpt>
      <trkpt lat="43.765720" lon="3.570359">
        <ele>430.9</ele>
        <time>2018-05-10T12:18:58Z</time>
      </trkpt>
      <trkpt lat="43.765641" lon="3.570251">
        <ele>430.5</ele>
        <time>2018-05-10T12:19:10Z</time>
      </trkpt>
      <trkpt lat="43.765535" lon="3.570153">
        <ele>427.3</ele>
        <time>2018-05-10T12:19:25Z</time>
      </trkpt>
      <trkpt lat="43.765446" lon="3.570152">
        <ele>425.0</ele>
        <time>2018-05-10T12:19:42Z</time>
      </trkpt>
      <trkpt lat="43.765532" lon="3.570248">
        <ele>424.1</ele>
        <time>2018-05-10T12:19:56Z</time>
      </trkpt>
      <trkpt lat="43.765450" lon="3.570271">
        <ele>420.7</ele>
        <time>2018-05-10T12:20:13Z</time>
      </trkpt>
      <trkpt lat="43.765351" lon="3.570263">
        <ele>418.9</ele>
        <time>2018-05-10T12:20:30Z</time>
      </trkpt>
      <trkpt lat="43.765360" lon="3.570374">
        <ele>416.0</ele>
        <time>2018-05-10T12:20:50Z</time>
      </trkpt>
      <trkpt lat="43.765253" lon="3.570320">
        <ele>414.0</ele>
        <time>2018-05-10T12:21:06Z</time>
      </trkpt>
      <trkpt lat="43.765091" lon="3.570339">
        <ele>410.7</ele>
        <time>2018-05-10T12:21:21Z</time>
      </trkpt>
      <trkpt lat="43.764967" lon="3.570353">
        <ele>407.5</ele>
        <time>2018-05-10T12:21:43Z</time>
      </trkpt>
      <trkpt lat="43.764887" lon="3.570440">
        <ele>405.4</ele>
        <time>2018-05-10T12:21:57Z</time>
      </trkpt>
      <trkpt lat="43.764803" lon="3.570510">
        <ele>403.0</ele>
        <time>2018-05-10T12:22:13Z</time>
      </trkpt>
      <trkpt lat="43.764707" lon="3.570562">
        <ele>401.9</ele>
        <time>2018-05-10T12:22:57Z</time>
      </trkpt>
      <trkpt lat="43.764599" lon="3.570629">
        <ele>401.1</ele>
        <time>2018-05-10T12:23:09Z</time>
      </trkpt>
      <trkpt lat="43.764486" lon="3.570660">
        <ele>398.8</ele>
        <time>2018-05-10T12:23:21Z</time>
      </trkpt>
      <trkpt lat="43.764366" lon="3.570657">
        <ele>398.5</ele>
        <time>2018-05-10T12:23:33Z</time>
      </trkpt>
      <trkpt lat="43.764267" lon="3.570660">
        <ele>398.0</ele>
        <time>2018-05-10T12:23:45Z</time>
      </trkpt>
      <trkpt lat="43.764163" lon="3.570620">
        <ele>396.4</ele>
        <time>2018-05-10T12:23:55Z</time>
      </trkpt>
      <trkpt lat="43.764081" lon="3.570596">
        <ele>394.9</ele>
        <time>2018-05-10T12:24:19Z</time>
      </trkpt>
      <trkpt lat="43.763957" lon="3.570564">
        <ele>392.9</ele>
        <time>2018-05-10T12:24:30Z</time>
      </trkpt>
      <trkpt lat="43.763847" lon="3.570574">
        <ele>392.1</ele>
        <time>2018-05-10T12:24:44Z</time>
      </trkpt>
      <trkpt lat="43.763736" lon="3.570577">
        <ele>389.6</ele>
        <time>2018-05-10T12:24:59Z</time>
      </trkpt>
      <trkpt lat="43.763634" lon="3.570579">
        <ele>386.3</ele>
        <time>2018-05-10T12:25:14Z</time>
      </trkpt>
      <trkpt lat="43.763533" lon="3.570573">
        <ele>385.0</ele>
        <time>2018-05-10T12:25:26Z</time>
      </trkpt>
      <trkpt lat="43.763418" lon="3.570522">
        <ele>382.1</ele>
        <time>2018-05-10T12:25:38Z</time>
      </trkpt>
      <trkpt lat="43.763364" lon="3.570421">
        <ele>378.8</ele>
        <time>2018-05-10T12:25:50Z</time>
      </trkpt>
      <trkpt lat="43.763312" lon="3.570271">
        <ele>377.7</ele>
        <time>2018-05-10T12:26:02Z</time>
      </trkpt>
      <trkpt lat="43.763253" lon="3.570149">
        <ele>378.6</ele>
        <time>2018-05-10T12:26:16Z</time>
      </trkpt>
      <trkpt lat="43.763168" lon="3.570101">
        <ele>376.4</ele>
        <time>2018-05-10T12:26:31Z</time>
      </trkpt>
      <trkpt lat="43.763136" lon="3.570241">
        <ele>374.0</ele>
        <time>2018-05-10T12:26:45Z</time>
      </trkpt>
      <trkpt lat="43.763076" lon="3.570373">
        <ele>370.6</ele>
        <time>2018-05-10T12:27:01Z</time>
      </trkpt>
      <trkpt lat="43.763034" lon="3.570513">
        <ele>366.8</ele>
        <time>2018-05-10T12:27:16Z</time>
      </trkpt>
      <trkpt lat="43.762978" lon="3.570635">
        <ele>362.9</ele>
        <time>2018-05-10T12:27:32Z</time>
      </trkpt>
      <trkpt lat="43.762939" lon="3.570809">
        <ele>361.3</ele>
        <time>2018-05-10T12:27:46Z</time>
      </trkpt>
      <trkpt lat="43.762919" lon="3.570989">
        <ele>360.8</ele>
        <time>2018-05-10T12:28:00Z</time>
      </trkpt>
      <trkpt lat="43.762910" lon="3.571159">
        <ele>357.4</ele>
        <time>2018-05-10T12:28:14Z</time>
      </trkpt>
      <trkpt lat="43.762945" lon="3.571325">
        <ele>354.7</ele>
        <time>2018-05-10T12:28:30Z</time>
      </trkpt>
      <trkpt lat="43.762907" lon="3.571426">
        <ele>353.1</ele>
        <time>2018-05-10T12:28:47Z</time>
      </trkpt>
      <trkpt lat="43.762802" lon="3.571385">
        <ele>351.4</ele>
        <time>2018-05-10T12:28:59Z</time>
      </trkpt>
      <trkpt lat="43.762698" lon="3.571315">
        <ele>349.5</ele>
        <time>2018-05-10T12:29:10Z</time>
      </trkpt>
      <trkpt lat="43.762589" lon="3.571193">
        <ele>346.9</ele>
        <time>2018-05-10T12:29:23Z</time>
      </trkpt>
      <trkpt lat="43.762527" lon="3.571149">
        <ele>345.9</ele>
        <time>2018-05-10T12:29:35Z</time>
      </trkpt>
      <trkpt lat="43.762487" lon="3.571310">
        <ele>344.9</ele>
        <time>2018-05-10T12:29:46Z</time>
      </trkpt>
      <trkpt lat="43.762445" lon="3.571468">
        <ele>344.6</ele>
        <time>2018-05-10T12:30:00Z</time>
      </trkpt>
      <trkpt lat="43.762314" lon="3.571481">
        <ele>341.7</ele>
        <time>2018-05-10T12:30:14Z</time>
      </trkpt>
      <trkpt lat="43.762195" lon="3.571483">
        <ele>339.0</ele>
        <time>2018-05-10T12:30:26Z</time>
      </trkpt>
      <trkpt lat="43.762082" lon="3.571478">
        <ele>336.9</ele>
        <time>2018-05-10T12:30:43Z</time>
      </trkpt>
      <trkpt lat="43.761961" lon="3.571489">
        <ele>334.4</ele>
        <time>2018-05-10T12:31:00Z</time>
      </trkpt>
      <trkpt lat="43.761836" lon="3.571507">
        <ele>337.7</ele>
        <time>2018-05-10T12:31:14Z</time>
      </trkpt>
      <trkpt lat="43.761675" lon="3.571517">
        <ele>338.9</ele>
        <time>2018-05-10T12:31:27Z</time>
      </trkpt>
      <trkpt lat="43.761530" lon="3.571603">
        <ele>337.4</ele>
        <time>2018-05-10T12:31:40Z</time>
      </trkpt>
      <trkpt lat="43.761404" lon="3.571635">
        <ele>335.8</ele>
        <time>2018-05-10T12:31:51Z</time>
      </trkpt>
      <trkpt lat="43.761252" lon="3.571667">
        <ele>334.1</ele>
        <time>2018-05-10T12:32:03Z</time>
      </trkpt>
      <trkpt lat="43.761096" lon="3.571679">
        <ele>332.2</ele>
        <time>2018-05-10T12:32:15Z</time>
      </trkpt>
      <trkpt lat="43.760963" lon="3.571702">
        <ele>330.0</ele>
        <time>2018-05-10T12:32:28Z</time>
      </trkpt>
      <trkpt lat="43.760843" lon="3.571703">
        <ele>328.1</ele>
        <time>2018-05-10T12:32:40Z</time>
      </trkpt>
      <trkpt lat="43.760720" lon="3.571684">
        <ele>326.6</ele>
        <time>2018-05-10T12:32:52Z</time>
      </trkpt>
      <trkpt lat="43.760597" lon="3.571635">
        <ele>326.2</ele>
        <time>2018-05-10T12:33:02Z</time>
      </trkpt>
      <trkpt lat="43.760508" lon="3.571578">
        <ele>326.4</ele>
        <time>2018-05-10T12:33:10Z</time>
      </trkpt>
      <trkpt lat="43.760412" lon="3.571513">
        <ele>327.2</ele>
        <time>2018-05-10T12:33:18Z</time>
      </trkpt>
      <trkpt lat="43.760312" lon="3.571427">
        <ele>327.7</ele>
        <time>2018-05-10T12:33:27Z</time>
      </trkpt>
      <trkpt lat="43.760228" lon="3.571336">
        <ele>328.0</ele>
        <time>2018-05-10T12:33:38Z</time>
      </trkpt>
      <trkpt lat="43.760140" lon="3.571214">
        <ele>324.7</ele>
        <time>2018-05-10T12:33:49Z</time>
      </trkpt>
      <trkpt lat="43.760040" lon="3.571201">
        <ele>324.8</ele>
        <time>2018-05-10T12:34:01Z</time>
      </trkpt>
      <trkpt lat="43.759943" lon="3.571180">
        <ele>322.5</ele>
        <time>2018-05-10T12:34:11Z</time>
      </trkpt>
      <trkpt lat="43.759788" lon="3.571169">
        <ele>320.8</ele>
        <time>2018-05-10T12:34:23Z</time>
      </trkpt>
      <trkpt lat="43.759665" lon="3.571124">
        <ele>321.7</ele>
        <time>2018-05-10T12:34:35Z</time>
      </trkpt>
      <trkpt lat="43.759558" lon="3.571051">
        <ele>321.0</ele>
        <time>2018-05-10T12:34:45Z</time>
      </trkpt>
      <trkpt lat="43.759434" lon="3.571052">
        <ele>318.9</ele>
        <time>2018-05-10T12:35:22Z</time>
      </trkpt>
      <trkpt lat="43.759302" lon="3.571048">
        <ele>315.9</ele>
        <time>2018-05-10T12:35:37Z</time>
      </trkpt>
      <trkpt lat="43.759162" lon="3.571050">
        <ele>315.5</ele>
        <time>2018-05-10T12:35:53Z</time>
      </trkpt>
      <trkpt lat="43.759045" lon="3.571109">
        <ele>315.6</ele>
        <time>2018-05-10T12:36:08Z</time>
      </trkpt>
      <trkpt lat="43.758930" lon="3.571116">
        <ele>313.5</ele>
        <time>2018-05-10T12:36:22Z</time>
      </trkpt>
      <trkpt lat="43.758805" lon="3.571101">
        <ele>309.7</ele>
        <time>2018-05-10T12:36:38Z</time>
      </trkpt>
      <trkpt lat="43.758698" lon="3.571070">
        <ele>309.8</ele>
        <time>2018-05-10T12:36:52Z</time>
      </trkpt>
      <trkpt lat="43.758670" lon="3.571096">
        <ele>309.1</ele>
        <time>2018-05-10T12:40:49Z</time>
      </trkpt>
      <trkpt lat="43.758590" lon="3.571169">
        <ele>308.8</ele>
        <time>2018-05-10T12:41:03Z</time>
      </trkpt>
      <trkpt lat="43.758501" lon="3.571250">
        <ele>307.0</ele>
        <time>2018-05-10T12:41:19Z</time>
      </trkpt>
      <trkpt lat="43.758443" lon="3.571355">
        <ele>303.5</ele>
        <time>2018-05-10T12:41:35Z</time>
      </trkpt>
      <trkpt lat="43.758482" lon="3.571481">
        <ele>303.2</ele>
        <time>2018-05-10T12:41:44Z</time>
      </trkpt>
      <trkpt lat="43.758511" lon="3.571610">
        <ele>304.0</ele>
        <time>2018-05-10T12:41:53Z</time>
      </trkpt>
      <trkpt lat="43.758508" lon="3.571736">
        <ele>303.3</ele>
        <time>2018-05-10T12:42:04Z</time>
      </trkpt>
      <trkpt lat="43.758427" lon="3.571832">
        <ele>301.2</ele>
        <time>2018-05-10T12:42:38Z</time>
      </trkpt>
      <trkpt lat="43.758318" lon="3.571875">
        <ele>300.2</ele>
        <time>2018-05-10T12:42:50Z</time>
      </trkpt>
      <trkpt lat="43.758221" lon="3.571935">
        <ele>300.5</ele>
        <time>2018-05-10T12:43:01Z</time>
      </trkpt>
      <trkpt lat="43.758138" lon="3.572082">
        <ele>299.6</ele>
        <time>2018-05-10T12:43:14Z</time>
      </trkpt>
      <trkpt lat="43.758056" lon="3.572186">
        <ele>299.1</ele>
        <time>2018-05-10T12:43:27Z</time>
      </trkpt>
      <trkpt lat="43.757950" lon="3.572196">
        <ele>298.1</ele>
        <time>2018-05-10T12:43:49Z</time>
      </trkpt>
      <trkpt lat="43.757830" lon="3.572180">
        <ele>297.3</ele>
        <time>2018-05-10T12:44:02Z</time>
      </trkpt>
      <trkpt lat="43.757724" lon="3.572224">
        <ele>297.7</ele>
        <time>2018-05-10T12:44:15Z</time>
      </trkpt>
      <trkpt lat="43.757620" lon="3.572286">
        <ele>297.8</ele>
        <time>2018-05-10T12:44:26Z</time>
      </trkpt>
      <trkpt lat="43.757512" lon="3.572324">
        <ele>296.8</ele>
        <time>2018-05-10T12:45:43Z</time>
      </trkpt>
      <trkpt lat="43.757416" lon="3.572256">
        <ele>296.6</ele>
        <time>2018-05-10T12:45:57Z</time>
      </trkpt>
      <trkpt lat="43.757325" lon="3.572212">
        <ele>297.2</ele>
        <time>2018-05-10T12:46:06Z</time>
      </trkpt>
      <trkpt lat="43.757232" lon="3.572134">
        <ele>295.9</ele>
        <time>2018-05-10T12:46:15Z</time>
      </trkpt>
      <trkpt lat="43.757121" lon="3.572088">
        <ele>295.3</ele>
        <time>2018-05-10T12:46:24Z</time>
      </trkpt>
      <trkpt lat="43.757025" lon="3.572125">
        <ele>294.0</ele>
        <time>2018-05-10T12:46:33Z</time>
      </trkpt>
      <trkpt lat="43.756917" lon="3.572141">
        <ele>294.8</ele>
        <time>2018-05-10T12:46:42Z</time>
      </trkpt>
      <trkpt lat="43.756825" lon="3.572212">
        <ele>293.7</ele>
        <time>2018-05-10T12:46:52Z</time>
      </trkpt>
      <trkpt lat="43.756739" lon="3.572296">
        <ele>292.4</ele>
        <time>2018-05-10T12:47:02Z</time>
      </trkpt>
      <trkpt lat="43.756655" lon="3.572404">
        <ele>292.6</ele>
        <time>2018-05-10T12:47:11Z</time>
      </trkpt>
      <trkpt lat="43.756561" lon="3.572484">
        <ele>293.5</ele>
        <time>2018-05-10T12:47:22Z</time>
      </trkpt>
      <trkpt lat="43.756467" lon="3.572529">
        <ele>293.2</ele>
        <time>2018-05-10T12:47:31Z</time>
      </trkpt>
      <trkpt lat="43.756377" lon="3.572586">
        <ele>292.3</ele>
        <time>2018-05-10T12:47:40Z</time>
      </trkpt>
      <trkpt lat="43.756303" lon="3.572722">
        <ele>291.3</ele>
        <time>2018-05-10T12:47:52Z</time>
      </trkpt>
      <trkpt lat="43.756232" lon="3.572838">
        <ele>290.2</ele>
        <time>2018-05-10T12:48:02Z</time>
      </trkpt>
      <trkpt lat="43.756119" lon="3.572859">
        <ele>290.2</ele>
        <time>2018-05-10T12:48:13Z</time>
      </trkpt>
      <trkpt lat="43.756011" lon="3.572854">
        <ele>290.9</ele>
        <time>2018-05-10T12:48:23Z</time>
      </trkpt>
      <trkpt lat="43.755872" lon="3.572828">
        <ele>289.7</ele>
        <time>2018-05-10T12:48:37Z</time>
      </trkpt>
      <trkpt lat="43.755775" lon="3.572856">
        <ele>289.8</ele>
        <time>2018-05-10T12:48:48Z</time>
      </trkpt>
      <trkpt lat="43.755664" lon="3.572836">
        <ele>288.7</ele>
        <time>2018-05-10T12:48:58Z</time>
      </trkpt>
      <trkpt lat="43.755558" lon="3.572866">
        <ele>289.2</ele>
        <time>2018-05-10T12:49:10Z</time>
      </trkpt>
      <trkpt lat="43.755451" lon="3.572919">
        <ele>289.2</ele>
        <time>2018-05-10T12:49:22Z</time>
      </trkpt>
      <trkpt lat="43.755342" lon="3.572942">
        <ele>289.5</ele>
        <time>2018-05-10T12:49:33Z</time>
      </trkpt>
      <trkpt lat="43.755235" lon="3.572984">
        <ele>290.9</ele>
        <time>2018-05-10T12:49:44Z</time>
      </trkpt>
      <trkpt lat="43.755135" lon="3.573048">
        <ele>290.0</ele>
        <time>2018-05-10T12:49:54Z</time>
      </trkpt>
      <trkpt lat="43.755020" lon="3.573098">
        <ele>288.3</ele>
        <time>2018-05-10T12:50:05Z</time>
      </trkpt>
      <trkpt lat="43.754882" lon="3.573156">
        <ele>288.8</ele>
        <time>2018-05-10T12:50:18Z</time>
      </trkpt>
      <trkpt lat="43.754755" lon="3.573186">
        <ele>288.2</ele>
        <time>2018-05-10T12:50:31Z</time>
      </trkpt>
      <trkpt lat="43.754637" lon="3.573156">
        <ele>289.7</ele>
        <time>2018-05-10T12:50:44Z</time>
      </trkpt>
      <trkpt lat="43.754552" lon="3.573096">
        <ele>288.0</ele>
        <time>2018-05-10T12:50:54Z</time>
      </trkpt>
      <trkpt lat="43.754447" lon="3.573103">
        <ele>286.3</ele>
        <time>2018-05-10T12:51:04Z</time>
      </trkpt>
      <trkpt lat="43.754357" lon="3.573167">
        <ele>285.5</ele>
        <time>2018-05-10T12:51:15Z</time>
      </trkpt>
      <trkpt lat="43.754240" lon="3.573225">
        <ele>284.9</ele>
        <time>2018-05-10T12:51:27Z</time>
      </trkpt>
      <trkpt lat="43.754129" lon="3.573251">
        <ele>285.1</ele>
        <time>2018-05-10T12:51:40Z</time>
      </trkpt>
      <trkpt lat="43.754025" lon="3.573171">
        <ele>285.9</ele>
        <time>2018-05-10T12:51:52Z</time>
      </trkpt>
      <trkpt lat="43.753921" lon="3.573102">
        <ele>285.2</ele>
        <time>2018-05-10T12:52:05Z</time>
      </trkpt>
      <trkpt lat="43.753830" lon="3.573035">
        <ele>285.3</ele>
        <time>2018-05-10T12:52:17Z</time>
      </trkpt>
      <trkpt lat="43.753712" lon="3.573006">
        <ele>284.9</ele>
        <time>2018-05-10T12:52:27Z</time>
      </trkpt>
      <trkpt lat="43.753592" lon="3.572987">
        <ele>284.8</ele>
        <time>2018-05-10T12:52:43Z</time>
      </trkpt>
      <trkpt lat="43.753495" lon="3.572989">
        <ele>284.3</ele>
        <time>2018-05-10T12:53:06Z</time>
      </trkpt>
      <trkpt lat="43.753399" lon="3.573009">
        <ele>283.0</ele>
        <time>2018-05-10T12:53:19Z</time>
      </trkpt>
      <trkpt lat="43.753296" lon="3.573048">
        <ele>282.9</ele>
        <time>2018-05-10T12:53:30Z</time>
      </trkpt>
      <trkpt lat="43.753176" lon="3.573054">
        <ele>281.0</ele>
        <time>2018-05-10T12:53:43Z</time>
      </trkpt>
      <trkpt lat="43.753084" lon="3.573019">
        <ele>279.8</ele>
        <time>2018-05-10T12:53:58Z</time>
      </trkpt>
      <trkpt lat="43.753008" lon="3.573019">
        <ele>279.1</ele>
        <time>2018-05-10T12:56:08Z</time>
      </trkpt>
      <trkpt lat="43.752919" lon="3.572946">
        <ele>277.3</ele>
        <time>2018-05-10T12:56:26Z</time>
      </trkpt>
      <trkpt lat="43.752831" lon="3.572881">
        <ele>274.9</ele>
        <time>2018-05-10T12:56:41Z</time>
      </trkpt>
      <trkpt lat="43.752741" lon="3.572841">
        <ele>272.2</ele>
        <time>2018-05-10T12:57:01Z</time>
      </trkpt>
      <trkpt lat="43.752653" lon="3.572786">
        <ele>270.4</ele>
        <time>2018-05-10T12:57:14Z</time>
      </trkpt>
      <trkpt lat="43.752558" lon="3.572678">
        <ele>268.2</ele>
        <time>2018-05-10T12:57:29Z</time>
      </trkpt>
      <trkpt lat="43.752457" lon="3.572578">
        <ele>267.0</ele>
        <time>2018-05-10T12:57:48Z</time>
      </trkpt>
      <trkpt lat="43.752359" lon="3.572491">
        <ele>263.1</ele>
        <time>2018-05-10T12:58:07Z</time>
      </trkpt>
      <trkpt lat="43.752267" lon="3.572387">
        <ele>263.7</ele>
        <time>2018-05-10T12:58:25Z</time>
      </trkpt>
      <trkpt lat="43.752222" lon="3.572270">
        <ele>261.0</ele>
        <time>2018-05-10T12:58:42Z</time>
      </trkpt>
      <trkpt lat="43.752121" lon="3.572169">
        <ele>259.3</ele>
        <time>2018-05-10T12:58:56Z</time>
      </trkpt>
      <trkpt lat="43.752041" lon="3.572070">
        <ele>257.0</ele>
        <time>2018-05-10T12:59:14Z</time>
      </trkpt>
      <trkpt lat="43.751937" lon="3.572006">
        <ele>254.9</ele>
        <time>2018-05-10T12:59:34Z</time>
      </trkpt>
      <trkpt lat="43.751827" lon="3.571944">
        <ele>251.4</ele>
        <time>2018-05-10T12:59:53Z</time>
      </trkpt>
      <trkpt lat="43.751767" lon="3.571820">
        <ele>250.1</ele>
        <time>2018-05-10T13:00:11Z</time>
      </trkpt>
      <trkpt lat="43.751695" lon="3.571764">
        <ele>248.9</ele>
        <time>2018-05-10T13:00:27Z</time>
      </trkpt>
      <trkpt lat="43.751602" lon="3.571691">
        <ele>246.5</ele>
        <time>2018-05-10T13:00:41Z</time>
      </trkpt>
      <trkpt lat="43.751510" lon="3.571680">
        <ele>244.1</ele>
        <time>2018-05-10T13:00:56Z</time>
      </trkpt>
      <trkpt lat="43.751429" lon="3.571581">
        <ele>239.3</ele>
        <time>2018-05-10T13:01:10Z</time>
      </trkpt>
      <trkpt lat="43.751387" lon="3.571436">
        <ele>238.2</ele>
        <time>2018-05-10T13:01:25Z</time>
      </trkpt>
      <trkpt lat="43.751319" lon="3.571301">
        <ele>236.7</ele>
        <time>2018-05-10T13:01:41Z</time>
      </trkpt>
      <trkpt lat="43.751241" lon="3.571180">
        <ele>235.3</ele>
        <time>2018-05-10T13:01:59Z</time>
      </trkpt>
      <trkpt lat="43.751158" lon="3.571069">
        <ele>231.8</ele>
        <time>2018-05-10T13:02:15Z</time>
      </trkpt>
      <trkpt lat="43.751071" lon="3.570952">
        <ele>229.4</ele>
        <time>2018-05-10T13:02:30Z</time>
      </trkpt>
      <trkpt lat="43.750986" lon="3.570847">
        <ele>228.9</ele>
        <time>2018-05-10T13:02:45Z</time>
      </trkpt>
      <trkpt lat="43.750910" lon="3.570730">
        <ele>226.9</ele>
        <time>2018-05-10T13:03:01Z</time>
      </trkpt>
      <trkpt lat="43.750853" lon="3.570610">
        <ele>227.6</ele>
        <time>2018-05-10T13:03:15Z</time>
      </trkpt>
      <trkpt lat="43.750767" lon="3.570486">
        <ele>227.4</ele>
        <time>2018-05-10T13:03:28Z</time>
      </trkpt>
      <trkpt lat="43.750681" lon="3.570394">
        <ele>225.8</ele>
        <time>2018-05-10T13:03:45Z</time>
      </trkpt>
      <trkpt lat="43.750604" lon="3.570258">
        <ele>223.8</ele>
        <time>2018-05-10T13:04:02Z</time>
      </trkpt>
      <trkpt lat="43.750506" lon="3.570156">
        <ele>221.4</ele>
        <time>2018-05-10T13:04:21Z</time>
      </trkpt>
      <trkpt lat="43.750387" lon="3.570109">
        <ele>222.4</ele>
        <time>2018-05-10T13:04:36Z</time>
      </trkpt>
      <trkpt lat="43.750286" lon="3.570083">
        <ele>221.4</ele>
        <time>2018-05-10T13:04:50Z</time>
      </trkpt>
      <trkpt lat="43.750184" lon="3.570068">
        <ele>217.8</ele>
        <time>2018-05-10T13:05:04Z</time>
      </trkpt>
      <trkpt lat="43.750033" lon="3.570051">
        <ele>216.1</ele>
        <time>2018-05-10T13:05:19Z</time>
      </trkpt>
      <trkpt lat="43.749922" lon="3.570074">
        <ele>215.9</ele>
        <time>2018-05-10T13:05:32Z</time>
      </trkpt>
      <trkpt lat="43.749815" lon="3.570076">
        <ele>215.9</ele>
        <time>2018-05-10T13:05:45Z</time>
      </trkpt>
      <trkpt lat="43.749711" lon="3.570082">
        <ele>215.0</ele>
        <time>2018-05-10T13:05:56Z</time>
      </trkpt>
      <trkpt lat="43.749602" lon="3.570089">
        <ele>213.6</ele>
        <time>2018-05-10T13:06:08Z</time>
      </trkpt>
      <trkpt lat="43.749495" lon="3.570112">
        <ele>213.5</ele>
        <time>2018-05-10T13:06:23Z</time>
      </trkpt>
      <trkpt lat="43.749385" lon="3.570132">
        <ele>211.1</ele>
        <time>2018-05-10T13:06:40Z</time>
      </trkpt>
      <trkpt lat="43.749301" lon="3.570126">
        <ele>210.2</ele>
        <time>2018-05-10T13:08:08Z</time>
      </trkpt>
      <trkpt lat="43.749172" lon="3.570106">
        <ele>209.1</ele>
        <time>2018-05-10T13:09:33Z</time>
      </trkpt>
      <trkpt lat="43.749083" lon="3.570093">
        <ele>208.7</ele>
        <time>2018-05-10T13:09:48Z</time>
      </trkpt>
      <trkpt lat="43.748983" lon="3.570047">
        <ele>208.1</ele>
        <time>2018-05-10T13:10:00Z</time>
      </trkpt>
      <trkpt lat="43.748880" lon="3.569992">
        <ele>207.3</ele>
        <time>2018-05-10T13:10:12Z</time>
      </trkpt>
      <trkpt lat="43.748765" lon="3.569962">
        <ele>206.6</ele>
        <time>2018-05-10T13:10:25Z</time>
      </trkpt>
      <trkpt lat="43.748654" lon="3.569931">
        <ele>205.6</ele>
        <time>2018-05-10T13:10:41Z</time>
      </trkpt>
      <trkpt lat="43.748556" lon="3.569896">
        <ele>202.7</ele>
        <time>2018-05-10T13:10:57Z</time>
      </trkpt>
      <trkpt lat="43.748481" lon="3.569816">
        <ele>202.1</ele>
        <time>2018-05-10T13:11:11Z</time>
      </trkpt>
      <trkpt lat="43.748416" lon="3.569683">
        <ele>202.8</ele>
        <time>2018-05-10T13:11:24Z</time>
      </trkpt>
      <trkpt lat="43.748369" lon="3.569557">
        <ele>203.2</ele>
        <time>2018-05-10T13:11:36Z</time>
      </trkpt>
      <trkpt lat="43.748328" lon="3.569421">
        <ele>203.3</ele>
        <time>2018-05-10T13:11:47Z</time>
      </trkpt>
      <trkpt lat="43.748284" lon="3.569283">
        <ele>203.0</ele>
        <time>2018-05-10T13:12:00Z</time>
      </trkpt>
      <trkpt lat="43.748233" lon="3.569176">
        <ele>201.4</ele>
        <time>2018-05-10T13:12:10Z</time>
      </trkpt>
      <trkpt lat="43.748160" lon="3.569061">
        <ele>199.7</ele>
        <time>2018-05-10T13:12:23Z</time>
      </trkpt>
      <trkpt lat="43.748103" lon="3.568956">
        <ele>198.9</ele>
        <time>2018-05-10T13:12:43Z</time>
      </trkpt>
      <trkpt lat="43.748073" lon="3.568813">
        <ele>196.9</ele>
        <time>2018-05-10T13:12:58Z</time>
      </trkpt>
      <trkpt lat="43.748027" lon="3.568701">
        <ele>194.5</ele>
        <time>2018-05-10T13:13:14Z</time>
      </trkpt>
      <trkpt lat="43.747976" lon="3.568581">
        <ele>192.3</ele>
        <time>2018-05-10T13:13:30Z</time>
      </trkpt>
      <trkpt lat="43.747887" lon="3.568473">
        <ele>189.7</ele>
        <time>2018-05-10T13:13:50Z</time>
      </trkpt>
      <trkpt lat="43.747786" lon="3.568425">
        <ele>187.2</ele>
        <time>2018-05-10T13:14:06Z</time>
      </trkpt>
      <trkpt lat="43.747684" lon="3.568396">
        <ele>185.1</ele>
        <time>2018-05-10T13:14:26Z</time>
      </trkpt>
      <trkpt lat="43.747591" lon="3.568340">
        <ele>182.4</ele>
        <time>2018-05-10T13:14:47Z</time>
      </trkpt>
      <trkpt lat="43.747501" lon="3.568265">
        <ele>180.3</ele>
        <time>2018-05-10T13:15:05Z</time>
      </trkpt>
      <trkpt lat="43.747404" lon="3.568248">
        <ele>175.9</ele>
        <time>2018-05-10T13:15:22Z</time>
      </trkpt>
      <trkpt lat="43.747301" lon="3.568219">
        <ele>173.7</ele>
        <time>2018-05-10T13:15:41Z</time>
      </trkpt>
      <trkpt lat="43.747208" lon="3.568237">
        <ele>171.4</ele>
        <time>2018-05-10T13:16:11Z</time>
      </trkpt>
      <trkpt lat="43.747116" lon="3.568219">
        <ele>168.1</ele>
        <time>2018-05-10T13:16:30Z</time>
      </trkpt>
      <trkpt lat="43.747040" lon="3.568196">
        <ele>165.3</ele>
        <time>2018-05-10T13:16:49Z</time>
      </trkpt>
      <trkpt lat="43.746949" lon="3.568108">
        <ele>162.9</ele>
        <time>2018-05-10T13:17:06Z</time>
      </trkpt>
      <trkpt lat="43.746845" lon="3.568037">
        <ele>160.8</ele>
        <time>2018-05-10T13:17:21Z</time>
      </trkpt>
      <trkpt lat="43.746738" lon="3.567967">
        <ele>158.6</ele>
        <time>2018-05-10T13:17:38Z</time>
      </trkpt>
      <trkpt lat="43.746635" lon="3.567896">
        <ele>155.6</ele>
        <time>2018-05-10T13:17:58Z</time>
      </trkpt>
      <trkpt lat="43.746546" lon="3.567845">
        <ele>153.1</ele>
        <time>2018-05-10T13:18:13Z</time>
      </trkpt>
      <trkpt lat="43.746448" lon="3.567795">
        <ele>151.7</ele>
        <time>2018-05-10T13:18:27Z</time>
      </trkpt>
      <trkpt lat="43.746354" lon="3.567730">
        <ele>150.4</ele>
        <time>2018-05-10T13:19:07Z</time>
      </trkpt>
      <trkpt lat="43.746282" lon="3.567713">
        <ele>148.9</ele>
        <time>2018-05-10T13:21:18Z</time>
      </trkpt>
      <trkpt lat="43.746190" lon="3.567669">
        <ele>147.5</ele>
        <time>2018-05-10T13:21:31Z</time>
      </trkpt>
      <trkpt lat="43.746070" lon="3.567631">
        <ele>146.4</ele>
        <time>2018-05-10T13:21:44Z</time>
      </trkpt>
      <trkpt lat="43.745964" lon="3.567602">
        <ele>144.8</ele>
        <time>2018-05-10T13:21:58Z</time>
      </trkpt>
      <trkpt lat="43.745867" lon="3.567619">
        <ele>142.5</ele>
        <time>2018-05-10T13:22:13Z</time>
      </trkpt>
      <trkpt lat="43.745818" lon="3.567708">
        <ele>140.2</ele>
        <time>2018-05-10T13:22:30Z</time>
      </trkpt>
      <trkpt lat="43.745731" lon="3.567622">
        <ele>138.4</ele>
        <time>2018-05-10T13:22:44Z</time>
      </trkpt>
      <trkpt lat="43.745658" lon="3.567532">
        <ele>135.7</ele>
        <time>2018-05-10T13:22:58Z</time>
      </trkpt>
      <trkpt lat="43.745600" lon="3.567408">
        <ele>133.9</ele>
        <time>2018-05-10T13:23:10Z</time>
      </trkpt>
      <trkpt lat="43.745572" lon="3.567257">
        <ele>132.6</ele>
        <time>2018-05-10T13:23:22Z</time>
      </trkpt>
      <trkpt lat="43.745475" lon="3.567171">
        <ele>132.2</ele>
        <time>2018-05-10T13:23:37Z</time>
      </trkpt>
      <trkpt lat="43.745389" lon="3.567101">
        <ele>131.7</ele>
        <time>2018-05-10T13:23:47Z</time>
      </trkpt>
      <trkpt lat="43.745314" lon="3.567014">
        <ele>131.5</ele>
        <time>2018-05-10T13:23:58Z</time>
      </trkpt>
      <trkpt lat="43.745245" lon="3.566912">
        <ele>129.9</ele>
        <time>2018-05-10T13:24:16Z</time>
      </trkpt>
      <trkpt lat="43.745198" lon="3.566784">
        <ele>128.0</ele>
        <time>2018-05-10T13:24:30Z</time>
      </trkpt>
      <trkpt lat="43.745119" lon="3.566714">
        <ele>127.1</ele>
        <time>2018-05-10T13:24:40Z</time>
      </trkpt>
      <trkpt lat="43.745033" lon="3.566626">
        <ele>125.4</ele>
        <time>2018-05-10T13:24:53Z</time>
      </trkpt>
      <trkpt lat="43.744936" lon="3.566565">
        <ele>123.2</ele>
        <time>2018-05-10T13:25:07Z</time>
      </trkpt>
      <trkpt lat="43.744870" lon="3.566506">
        <ele>120.6</ele>
        <time>2018-05-10T13:25:24Z</time>
      </trkpt>
      <trkpt lat="43.744772" lon="3.566539">
        <ele>117.7</ele>
        <time>2018-05-10T13:25:41Z</time>
      </trkpt>
      <trkpt lat="43.744681" lon="3.566489">
        <ele>115.3</ele>
        <time>2018-05-10T13:25:56Z</time>
      </trkpt>
      <trkpt lat="43.744634" lon="3.566542">
        <ele>114.2</ele>
        <time>2018-05-10T13:26:09Z</time>
      </trkpt>
      <trkpt lat="43.744585" lon="3.566408">
        <ele>114.0</ele>
        <time>2018-05-10T13:27:23Z</time>
      </trkpt>
      <trkpt lat="43.744561" lon="3.566318">
        <ele>112.0</ele>
        <time>2018-05-10T13:27:38Z</time>
      </trkpt>
      <trkpt lat="43.744467" lon="3.566283">
        <ele>110.2</ele>
        <time>2018-05-10T13:27:50Z</time>
      </trkpt>
      <trkpt lat="43.744395" lon="3.566225">
        <ele>108.6</ele>
        <time>2018-05-10T13:28:05Z</time>
      </trkpt>
      <trkpt lat="43.744331" lon="3.566286">
        <ele>106.9</ele>
        <time>2018-05-10T13:28:18Z</time>
      </trkpt>
      <trkpt lat="43.744321" lon="3.566401">
        <ele>104.9</ele>
        <time>2018-05-10T13:28:32Z</time>
      </trkpt>
      <trkpt lat="43.744233" lon="3.566333">
        <ele>103.5</ele>
        <time>2018-05-10T13:28:44Z</time>
      </trkpt>
      <trkpt lat="43.744162" lon="3.566234">
        <ele>101.4</ele>
        <time>2018-05-10T13:28:56Z</time>
      </trkpt>
      <trkpt lat="43.744077" lon="3.566184">
        <ele>99.2</ele>
        <time>2018-05-10T13:29:08Z</time>
      </trkpt>
      <trkpt lat="43.743994" lon="3.566146">
        <ele>98.2</ele>
        <time>2018-05-10T13:29:27Z</time>
      </trkpt>
      <trkpt lat="43.743920" lon="3.566139">
        <ele>97.5</ele>
        <time>2018-05-10T13:29:39Z</time>
      </trkpt>
      <trkpt lat="43.743849" lon="3.566038">
        <ele>95.1</ele>
        <time>2018-05-10T13:29:49Z</time>
      </trkpt>
      <trkpt lat="43.743776" lon="3.565948">
        <ele>94.0</ele>
        <time>2018-05-10T13:29:58Z</time>
      </trkpt>
      <trkpt lat="43.743716" lon="3.565850">
        <ele>94.1</ele>
        <time>2018-05-10T13:30:13Z</time>
      </trkpt>
      <trkpt lat="43.743651" lon="3.565756">
        <ele>92.3</ele>
        <time>2018-05-10T13:30:23Z</time>
      </trkpt>
      <trkpt lat="43.743579" lon="3.565675">
        <ele>91.5</ele>
        <time>2018-05-10T13:30:35Z</time>
      </trkpt>
      <trkpt lat="43.743540" lon="3.565562">
        <ele>91.3</ele>
        <time>2018-05-10T13:30:46Z</time>
      </trkpt>
      <trkpt lat="43.743526" lon="3.565682">
        <ele>90.3</ele>
        <time>2018-05-10T13:31:23Z</time>
      </trkpt>
      <trkpt lat="43.743559" lon="3.565801">
        <ele>90.2</ele>
        <time>2018-05-10T13:31:32Z</time>
      </trkpt>
      <trkpt lat="43.743533" lon="3.565914">
        <ele>90.2</ele>
        <time>2018-05-10T13:31:41Z</time>
      </trkpt>
      <trkpt lat="43.743544" lon="3.566032">
        <ele>90.0</ele>
        <time>2018-05-10T13:31:51Z</time>
      </trkpt>
      <trkpt lat="43.743464" lon="3.566111">
        <ele>89.9</ele>
        <time>2018-05-10T13:32:01Z</time>
      </trkpt>
      <trkpt lat="43.743469" lon="3.566107">
        <ele>-59.5</ele>
        <time>2018-05-10T13:33:10Z</time>
      </trkpt>
    </trkseg>
  </trk>
</gpx>

